<?xml version="1.0" encoding="UTF-8" standalone="no" ?>
<gpx xmlns="http://www.topografix.com/GPX/1/1" xmlns:xsi="http://www.w3.org/2001/XMLSchema-instance" xsi:schemaLocation="http://www.topografix.com/GPX/1/1 http://www.topografix.com/GPX/1/1/gpx.xsd" version="1.1" creator="VisuGPX - https://www.visugpx.com">
  <metadata>
    <name>Pointe d'Andey</name>
  </metadata>
  <trk>
    <name><![CDATA[20190508130239-uuA7o]]></name>
    <trkseg>
      <trkpt lat="46.04468" lon="6.44451">
        <ele>1046.05</ele>
        <time>2019-03-02T11:45:01Z</time>
      </trkpt>
      <trkpt lat="46.04468" lon="6.44449">
        <ele>1159.01</ele>
        <time>2019-03-02T11:45:02Z</time>
      </trkpt>
      <trkpt lat="46.04468" lon="6.44449">
        <ele>1159.01</ele>
        <time>2019-03-02T11:45:03Z</time>
      </trkpt>
      <trkpt lat="46.04469" lon="6.44446">
        <ele>1047.01</ele>
        <time>2019-03-02T11:45:05Z</time>
      </trkpt>
      <trkpt lat="46.04468" lon="6.44444">
        <ele>1047.01</ele>
        <time>2019-03-02T11:45:06Z</time>
      </trkpt>
      <trkpt lat="46.04467" lon="6.44436">
        <ele>1047.49</ele>
        <time>2019-03-02T11:45:12Z</time>
      </trkpt>
      <trkpt lat="46.04467" lon="6.44435">
        <ele>1047.97</ele>
        <time>2019-03-02T11:45:13Z</time>
      </trkpt>
      <trkpt lat="46.04467" lon="6.44433">
        <ele>1047.97</ele>
        <time>2019-03-02T11:45:14Z</time>
      </trkpt>
      <trkpt lat="46.04463" lon="6.44415">
        <ele>1051.34</ele>
        <time>2019-03-02T11:45:29Z</time>
      </trkpt>
      <trkpt lat="46.04454" lon="6.44398">
        <ele>1054.22</ele>
        <time>2019-03-02T11:45:46Z</time>
      </trkpt>
      <trkpt lat="46.04444" lon="6.44378">
        <ele>1057.59</ele>
        <time>2019-03-02T11:46:07Z</time>
      </trkpt>
      <trkpt lat="46.04437" lon="6.44366">
        <ele>1060.95</ele>
        <time>2019-03-02T11:46:20Z</time>
      </trkpt>
      <trkpt lat="46.04427" lon="6.44356">
        <ele>1063.84</ele>
        <time>2019-03-02T11:46:34Z</time>
      </trkpt>
      <trkpt lat="46.04424" lon="6.44341">
        <ele>1066.72</ele>
        <time>2019-03-02T11:46:45Z</time>
      </trkpt>
      <trkpt lat="46.04424" lon="6.44328">
        <ele>1069.6</ele>
        <time>2019-03-02T11:46:58Z</time>
      </trkpt>
      <trkpt lat="46.04421" lon="6.44312">
        <ele>1072.97</ele>
        <time>2019-03-02T11:47:23Z</time>
      </trkpt>
      <trkpt lat="46.04421" lon="6.44298">
        <ele>1076.33</ele>
        <time>2019-03-02T11:47:39Z</time>
      </trkpt>
      <trkpt lat="46.04415" lon="6.44296">
        <ele>1079.22</ele>
        <time>2019-03-02T11:47:56Z</time>
      </trkpt>
      <trkpt lat="46.04409" lon="6.44295">
        <ele>1080.66</ele>
        <time>2019-03-02T11:48:06Z</time>
      </trkpt>
      <trkpt lat="46.04409" lon="6.44295">
        <ele>1080.66</ele>
        <time>2019-03-02T11:48:07Z</time>
      </trkpt>
      <trkpt lat="46.04408" lon="6.44296">
        <ele>1081.14</ele>
        <time>2019-03-02T11:48:08Z</time>
      </trkpt>
      <trkpt lat="46.04407" lon="6.44296">
        <ele>1081.62</ele>
        <time>2019-03-02T11:48:09Z</time>
      </trkpt>
      <trkpt lat="46.04406" lon="6.44296">
        <ele>1081.62</ele>
        <time>2019-03-02T11:48:10Z</time>
      </trkpt>
      <trkpt lat="46.04397" lon="6.443">
        <ele>1084.5</ele>
        <time>2019-03-02T11:48:27Z</time>
      </trkpt>
      <trkpt lat="46.04386" lon="6.44303">
        <ele>1087.87</ele>
        <time>2019-03-02T11:48:43Z</time>
      </trkpt>
      <trkpt lat="46.04381" lon="6.44307">
        <ele>1089.79</ele>
        <time>2019-03-02T11:49:03Z</time>
      </trkpt>
      <trkpt lat="46.04381" lon="6.44306">
        <ele>1087.39</ele>
        <time>2019-03-02T11:49:07Z</time>
      </trkpt>
      <trkpt lat="46.04384" lon="6.44303">
        <ele>1087.39</ele>
        <time>2019-03-02T11:49:55Z</time>
      </trkpt>
      <trkpt lat="46.04376" lon="6.44306">
        <ele>1090.75</ele>
        <time>2019-03-02T11:50:27Z</time>
      </trkpt>
      <trkpt lat="46.04374" lon="6.44307">
        <ele>1091.23</ele>
        <time>2019-03-02T11:50:29Z</time>
      </trkpt>
      <trkpt lat="46.04363" lon="6.44304">
        <ele>1094.6</ele>
        <time>2019-03-02T11:50:43Z</time>
      </trkpt>
      <trkpt lat="46.04356" lon="6.44298">
        <ele>1096.52</ele>
        <time>2019-03-02T11:50:54Z</time>
      </trkpt>
      <trkpt lat="46.04356" lon="6.44297">
        <ele>1097</ele>
        <time>2019-03-02T11:50:55Z</time>
      </trkpt>
      <trkpt lat="46.04354" lon="6.4428">
        <ele>1099.89</ele>
        <time>2019-03-02T11:51:10Z</time>
      </trkpt>
      <trkpt lat="46.04349" lon="6.44262">
        <ele>1102.77</ele>
        <time>2019-03-02T11:51:28Z</time>
      </trkpt>
      <trkpt lat="46.04344" lon="6.44242">
        <ele>1106.13</ele>
        <time>2019-03-02T11:51:46Z</time>
      </trkpt>
      <trkpt lat="46.0434" lon="6.44225">
        <ele>1109.02</ele>
        <time>2019-03-02T11:52:03Z</time>
      </trkpt>
      <trkpt lat="46.04333" lon="6.44209">
        <ele>1112.38</ele>
        <time>2019-03-02T11:52:18Z</time>
      </trkpt>
      <trkpt lat="46.04328" lon="6.44194">
        <ele>1115.27</ele>
        <time>2019-03-02T11:52:33Z</time>
      </trkpt>
      <trkpt lat="46.0432" lon="6.44179">
        <ele>1118.63</ele>
        <time>2019-03-02T11:52:49Z</time>
      </trkpt>
      <trkpt lat="46.04318" lon="6.44172">
        <ele>1121.03</ele>
        <time>2019-03-02T11:53:25Z</time>
      </trkpt>
      <trkpt lat="46.04313" lon="6.4416">
        <ele>1122.48</ele>
        <time>2019-03-02T11:54:01Z</time>
      </trkpt>
      <trkpt lat="46.04307" lon="6.44148">
        <ele>1125.84</ele>
        <time>2019-03-02T11:54:16Z</time>
      </trkpt>
      <trkpt lat="46.04301" lon="6.44137">
        <ele>1129.21</ele>
        <time>2019-03-02T11:54:30Z</time>
      </trkpt>
      <trkpt lat="46.04298" lon="6.44125">
        <ele>1132.57</ele>
        <time>2019-03-02T11:54:44Z</time>
      </trkpt>
      <trkpt lat="46.04295" lon="6.44113">
        <ele>1135.45</ele>
        <time>2019-03-02T11:54:58Z</time>
      </trkpt>
      <trkpt lat="46.04292" lon="6.44105">
        <ele>1137.86</ele>
        <time>2019-03-02T11:55:08Z</time>
      </trkpt>
      <trkpt lat="46.04291" lon="6.44095">
        <ele>1141.22</ele>
        <time>2019-03-02T11:55:23Z</time>
      </trkpt>
      <trkpt lat="46.04295" lon="6.44084">
        <ele>1144.11</ele>
        <time>2019-03-02T11:55:36Z</time>
      </trkpt>
      <trkpt lat="46.04296" lon="6.44082">
        <ele>1144.59</ele>
        <time>2019-03-02T11:55:38Z</time>
      </trkpt>
      <trkpt lat="46.04297" lon="6.44068">
        <ele>1147.47</ele>
        <time>2019-03-02T11:55:54Z</time>
      </trkpt>
      <trkpt lat="46.04297" lon="6.44068">
        <ele>1147.95</ele>
        <time>2019-03-02T11:55:55Z</time>
      </trkpt>
      <trkpt lat="46.04292" lon="6.44055">
        <ele>1150.84</ele>
        <time>2019-03-02T11:56:16Z</time>
      </trkpt>
      <trkpt lat="46.04287" lon="6.44045">
        <ele>1153.72</ele>
        <time>2019-03-02T11:56:31Z</time>
      </trkpt>
      <trkpt lat="46.04278" lon="6.44035">
        <ele>1157.08</ele>
        <time>2019-03-02T11:56:46Z</time>
      </trkpt>
      <trkpt lat="46.0427" lon="6.44025">
        <ele>1159.97</ele>
        <time>2019-03-02T11:57:01Z</time>
      </trkpt>
      <trkpt lat="46.04269" lon="6.44022">
        <ele>1160.93</ele>
        <time>2019-03-02T11:57:04Z</time>
      </trkpt>
      <trkpt lat="46.04265" lon="6.44019">
        <ele>1161.89</ele>
        <time>2019-03-02T11:57:10Z</time>
      </trkpt>
      <trkpt lat="46.04264" lon="6.44015">
        <ele>1162.85</ele>
        <time>2019-03-02T11:57:14Z</time>
      </trkpt>
      <trkpt lat="46.04259" lon="6.4401">
        <ele>1166.22</ele>
        <time>2019-03-02T11:57:26Z</time>
      </trkpt>
      <trkpt lat="46.04255" lon="6.44008">
        <ele>1167.18</ele>
        <time>2019-03-02T11:57:32Z</time>
      </trkpt>
      <trkpt lat="46.04254" lon="6.44007">
        <ele>1167.18</ele>
        <time>2019-03-02T11:57:33Z</time>
      </trkpt>
      <trkpt lat="46.04253" lon="6.44006">
        <ele>1167.66</ele>
        <time>2019-03-02T11:57:34Z</time>
      </trkpt>
      <trkpt lat="46.04253" lon="6.44005">
        <ele>1167.66</ele>
        <time>2019-03-02T11:57:35Z</time>
      </trkpt>
      <trkpt lat="46.04252" lon="6.44004">
        <ele>1168.14</ele>
        <time>2019-03-02T11:57:36Z</time>
      </trkpt>
      <trkpt lat="46.04241" lon="6.4399">
        <ele>1171.02</ele>
        <time>2019-03-02T11:57:57Z</time>
      </trkpt>
      <trkpt lat="46.04236" lon="6.43976">
        <ele>1174.39</ele>
        <time>2019-03-02T11:58:15Z</time>
      </trkpt>
      <trkpt lat="46.0423" lon="6.43957">
        <ele>1177.27</ele>
        <time>2019-03-02T11:58:35Z</time>
      </trkpt>
      <trkpt lat="46.0422" lon="6.4394">
        <ele>1180.64</ele>
        <time>2019-03-02T11:58:55Z</time>
      </trkpt>
      <trkpt lat="46.04217" lon="6.43921">
        <ele>1183.52</ele>
        <time>2019-03-02T11:59:15Z</time>
      </trkpt>
      <trkpt lat="46.04209" lon="6.43903">
        <ele>1186.4</ele>
        <time>2019-03-02T11:59:35Z</time>
      </trkpt>
      <trkpt lat="46.04202" lon="6.43884">
        <ele>1189.77</ele>
        <time>2019-03-02T11:59:56Z</time>
      </trkpt>
      <trkpt lat="46.04194" lon="6.43866">
        <ele>1192.65</ele>
        <time>2019-03-02T12:00:16Z</time>
      </trkpt>
      <trkpt lat="46.04187" lon="6.43851">
        <ele>1196.02</ele>
        <time>2019-03-02T12:00:34Z</time>
      </trkpt>
      <trkpt lat="46.0418" lon="6.43837">
        <ele>1198.9</ele>
        <time>2019-03-02T12:00:52Z</time>
      </trkpt>
      <trkpt lat="46.04173" lon="6.43823">
        <ele>1201.79</ele>
        <time>2019-03-02T12:01:10Z</time>
      </trkpt>
      <trkpt lat="46.04164" lon="6.43822">
        <ele>1202.27</ele>
        <time>2019-03-02T12:01:56Z</time>
      </trkpt>
      <trkpt lat="46.04164" lon="6.4382">
        <ele>1202.27</ele>
        <time>2019-03-02T12:01:58Z</time>
      </trkpt>
      <trkpt lat="46.04163" lon="6.43816">
        <ele>1203.23</ele>
        <time>2019-03-02T12:02:03Z</time>
      </trkpt>
      <trkpt lat="46.04159" lon="6.43804">
        <ele>1206.59</ele>
        <time>2019-03-02T12:02:18Z</time>
      </trkpt>
      <trkpt lat="46.04154" lon="6.43787">
        <ele>1209.48</ele>
        <time>2019-03-02T12:02:35Z</time>
      </trkpt>
      <trkpt lat="46.04154" lon="6.43774">
        <ele>1211.88</ele>
        <time>2019-03-02T12:02:47Z</time>
      </trkpt>
      <trkpt lat="46.04152" lon="6.43762">
        <ele>1214.76</ele>
        <time>2019-03-02T12:04:45Z</time>
      </trkpt>
      <trkpt lat="46.04144" lon="6.43765">
        <ele>1218.13</ele>
        <time>2019-03-02T12:05:03Z</time>
      </trkpt>
      <trkpt lat="46.0414" lon="6.43765">
        <ele>1219.57</ele>
        <time>2019-03-02T12:05:08Z</time>
      </trkpt>
      <trkpt lat="46.04129" lon="6.43769">
        <ele>1222.45</ele>
        <time>2019-03-02T12:05:23Z</time>
      </trkpt>
      <trkpt lat="46.0412" lon="6.43769">
        <ele>1225.82</ele>
        <time>2019-03-02T12:05:37Z</time>
      </trkpt>
      <trkpt lat="46.04115" lon="6.43776">
        <ele>1229.18</ele>
        <time>2019-03-02T12:05:51Z</time>
      </trkpt>
      <trkpt lat="46.04106" lon="6.43782">
        <ele>1232.07</ele>
        <time>2019-03-02T12:06:06Z</time>
      </trkpt>
      <trkpt lat="46.04094" lon="6.43784">
        <ele>1235.43</ele>
        <time>2019-03-02T12:06:21Z</time>
      </trkpt>
      <trkpt lat="46.0409" lon="6.43783">
        <ele>1237.83</ele>
        <time>2019-03-02T12:06:40Z</time>
      </trkpt>
      <trkpt lat="46.0409" lon="6.43783">
        <ele>1237.35</ele>
        <time>2019-03-02T12:06:41Z</time>
      </trkpt>
      <trkpt lat="46.04097" lon="6.4379">
        <ele>1235.91</ele>
        <time>2019-03-02T12:07:18Z</time>
      </trkpt>
      <trkpt lat="46.04096" lon="6.43791">
        <ele>1236.39</ele>
        <time>2019-03-02T12:07:40Z</time>
      </trkpt>
      <trkpt lat="46.04099" lon="6.43788">
        <ele>1236.39</ele>
        <time>2019-03-02T12:07:54Z</time>
      </trkpt>
      <trkpt lat="46.041" lon="6.43787">
        <ele>1236.39</ele>
        <time>2019-03-02T12:07:55Z</time>
      </trkpt>
      <trkpt lat="46.04091" lon="6.43792">
        <ele>1239.76</ele>
        <time>2019-03-02T12:08:28Z</time>
      </trkpt>
      <trkpt lat="46.04084" lon="6.43756">
        <ele>1242.16</ele>
        <time>2019-03-02T12:09:11Z</time>
      </trkpt>
      <trkpt lat="46.0409" lon="6.43739">
        <ele>1243.12</ele>
        <time>2019-03-02T12:09:26Z</time>
      </trkpt>
      <trkpt lat="46.041" lon="6.43714">
        <ele>1245.53</ele>
        <time>2019-03-02T12:09:48Z</time>
      </trkpt>
      <trkpt lat="46.041" lon="6.43707">
        <ele>1246.01</ele>
        <time>2019-03-02T12:09:53Z</time>
      </trkpt>
      <trkpt lat="46.041" lon="6.43706">
        <ele>1246.01</ele>
        <time>2019-03-02T12:09:54Z</time>
      </trkpt>
      <trkpt lat="46.04098" lon="6.43701">
        <ele>1247.45</ele>
        <time>2019-03-02T12:09:58Z</time>
      </trkpt>
      <trkpt lat="46.04094" lon="6.43687">
        <ele>1250.81</ele>
        <time>2019-03-02T12:10:10Z</time>
      </trkpt>
      <trkpt lat="46.04099" lon="6.43628">
        <ele>1253.7</ele>
        <time>2019-03-02T12:10:52Z</time>
      </trkpt>
      <trkpt lat="46.04098" lon="6.43603">
        <ele>1256.58</ele>
        <time>2019-03-02T12:11:12Z</time>
      </trkpt>
      <trkpt lat="46.04089" lon="6.43591">
        <ele>1257.06</ele>
        <time>2019-03-02T12:12:00Z</time>
      </trkpt>
      <trkpt lat="46.04088" lon="6.4359">
        <ele>1257.06</ele>
        <time>2019-03-02T12:12:01Z</time>
      </trkpt>
      <trkpt lat="46.04098" lon="6.4357">
        <ele>1258.98</ele>
        <time>2019-03-02T12:12:20Z</time>
      </trkpt>
      <trkpt lat="46.04099" lon="6.43568">
        <ele>1259.46</ele>
        <time>2019-03-02T12:12:21Z</time>
      </trkpt>
      <trkpt lat="46.04099" lon="6.43567">
        <ele>1259.46</ele>
        <time>2019-03-02T12:12:22Z</time>
      </trkpt>
      <trkpt lat="46.04111" lon="6.4355">
        <ele>1262.83</ele>
        <time>2019-03-02T12:12:40Z</time>
      </trkpt>
      <trkpt lat="46.04119" lon="6.43541">
        <ele>1265.71</ele>
        <time>2019-03-02T12:12:56Z</time>
      </trkpt>
      <trkpt lat="46.04123" lon="6.43528">
        <ele>1268.6</ele>
        <time>2019-03-02T12:13:13Z</time>
      </trkpt>
      <trkpt lat="46.04121" lon="6.43524">
        <ele>1271.96</ele>
        <time>2019-03-02T12:13:30Z</time>
      </trkpt>
      <trkpt lat="46.04118" lon="6.43522">
        <ele>1272.44</ele>
        <time>2019-03-02T12:13:35Z</time>
      </trkpt>
      <trkpt lat="46.04111" lon="6.43515">
        <ele>1274.36</ele>
        <time>2019-03-02T12:13:48Z</time>
      </trkpt>
      <trkpt lat="46.0411" lon="6.43515">
        <ele>1274.85</ele>
        <time>2019-03-02T12:13:49Z</time>
      </trkpt>
      <trkpt lat="46.04109" lon="6.43515">
        <ele>1274.85</ele>
        <time>2019-03-02T12:13:50Z</time>
      </trkpt>
      <trkpt lat="46.04109" lon="6.43514">
        <ele>1274.85</ele>
        <time>2019-03-02T12:13:51Z</time>
      </trkpt>
      <trkpt lat="46.04108" lon="6.43514">
        <ele>1275.33</ele>
        <time>2019-03-02T12:13:52Z</time>
      </trkpt>
      <trkpt lat="46.04107" lon="6.43513">
        <ele>1275.33</ele>
        <time>2019-03-02T12:13:53Z</time>
      </trkpt>
      <trkpt lat="46.04106" lon="6.43509">
        <ele>1276.29</ele>
        <time>2019-03-02T12:13:57Z</time>
      </trkpt>
      <trkpt lat="46.04111" lon="6.435">
        <ele>1279.17</ele>
        <time>2019-03-02T12:14:11Z</time>
      </trkpt>
      <trkpt lat="46.04117" lon="6.43491">
        <ele>1282.06</ele>
        <time>2019-03-02T12:14:27Z</time>
      </trkpt>
      <trkpt lat="46.04114" lon="6.43481">
        <ele>1285.42</ele>
        <time>2019-03-02T12:14:46Z</time>
      </trkpt>
      <trkpt lat="46.04112" lon="6.43479">
        <ele>1285.42</ele>
        <time>2019-03-02T12:14:49Z</time>
      </trkpt>
      <trkpt lat="46.04099" lon="6.43472">
        <ele>1288.78</ele>
        <time>2019-03-02T12:15:09Z</time>
      </trkpt>
      <trkpt lat="46.04087" lon="6.43474">
        <ele>1292.15</ele>
        <time>2019-03-02T12:15:26Z</time>
      </trkpt>
      <trkpt lat="46.04078" lon="6.43477">
        <ele>1295.03</ele>
        <time>2019-03-02T12:15:39Z</time>
      </trkpt>
      <trkpt lat="46.04077" lon="6.43477">
        <ele>1295.03</ele>
        <time>2019-03-02T12:15:40Z</time>
      </trkpt>
      <trkpt lat="46.04076" lon="6.43477">
        <ele>1295.03</ele>
        <time>2019-03-02T12:15:41Z</time>
      </trkpt>
      <trkpt lat="46.04076" lon="6.43476">
        <ele>1295.51</ele>
        <time>2019-03-02T12:15:42Z</time>
      </trkpt>
      <trkpt lat="46.0407" lon="6.43469">
        <ele>1298.4</ele>
        <time>2019-03-02T12:15:58Z</time>
      </trkpt>
      <trkpt lat="46.04062" lon="6.43461">
        <ele>1301.76</ele>
        <time>2019-03-02T12:16:18Z</time>
      </trkpt>
      <trkpt lat="46.04054" lon="6.43454">
        <ele>1304.65</ele>
        <time>2019-03-02T12:16:36Z</time>
      </trkpt>
      <trkpt lat="46.04045" lon="6.43449">
        <ele>1308.01</ele>
        <time>2019-03-02T12:16:50Z</time>
      </trkpt>
      <trkpt lat="46.04048" lon="6.43433">
        <ele>1310.9</ele>
        <time>2019-03-02T12:17:08Z</time>
      </trkpt>
      <trkpt lat="46.04052" lon="6.43423">
        <ele>1313.3</ele>
        <time>2019-03-02T12:17:40Z</time>
      </trkpt>
      <trkpt lat="46.04051" lon="6.43422">
        <ele>1313.78</ele>
        <time>2019-03-02T12:18:02Z</time>
      </trkpt>
      <trkpt lat="46.04051" lon="6.43422">
        <ele>1313.78</ele>
        <time>2019-03-02T12:18:21Z</time>
      </trkpt>
      <trkpt lat="46.04049" lon="6.43427">
        <ele>1312.82</ele>
        <time>2019-03-02T12:18:41Z</time>
      </trkpt>
      <trkpt lat="46.04049" lon="6.43427">
        <ele>1312.82</ele>
        <time>2019-03-02T12:18:59Z</time>
      </trkpt>
      <trkpt lat="46.04047" lon="6.43426">
        <ele>1312.82</ele>
        <time>2019-03-02T12:19:15Z</time>
      </trkpt>
      <trkpt lat="46.04047" lon="6.43422">
        <ele>1313.78</ele>
        <time>2019-03-02T12:19:33Z</time>
      </trkpt>
      <trkpt lat="46.04048" lon="6.4342">
        <ele>1314.26</ele>
        <time>2019-03-02T12:19:35Z</time>
      </trkpt>
      <trkpt lat="46.04048" lon="6.43419">
        <ele>1314.26</ele>
        <time>2019-03-02T12:19:36Z</time>
      </trkpt>
      <trkpt lat="46.04043" lon="6.43415">
        <ele>1317.62</ele>
        <time>2019-03-02T12:19:53Z</time>
      </trkpt>
      <trkpt lat="46.04041" lon="6.43414">
        <ele>1318.1</ele>
        <time>2019-03-02T12:19:57Z</time>
      </trkpt>
      <trkpt lat="46.04034" lon="6.43411">
        <ele>1320.51</ele>
        <time>2019-03-02T12:20:10Z</time>
      </trkpt>
      <trkpt lat="46.04027" lon="6.43409">
        <ele>1322.43</ele>
        <time>2019-03-02T12:20:21Z</time>
      </trkpt>
      <trkpt lat="46.04026" lon="6.43408">
        <ele>1322.91</ele>
        <time>2019-03-02T12:20:23Z</time>
      </trkpt>
      <trkpt lat="46.04024" lon="6.43407">
        <ele>1323.39</ele>
        <time>2019-03-02T12:20:25Z</time>
      </trkpt>
      <trkpt lat="46.04024" lon="6.43406">
        <ele>1323.39</ele>
        <time>2019-03-02T12:20:26Z</time>
      </trkpt>
      <trkpt lat="46.04023" lon="6.43405">
        <ele>1323.39</ele>
        <time>2019-03-02T12:20:27Z</time>
      </trkpt>
      <trkpt lat="46.04023" lon="6.43403">
        <ele>1324.35</ele>
        <time>2019-03-02T12:20:29Z</time>
      </trkpt>
      <trkpt lat="46.04027" lon="6.4339">
        <ele>1327.24</ele>
        <time>2019-03-02T12:21:01Z</time>
      </trkpt>
      <trkpt lat="46.04022" lon="6.43381">
        <ele>1330.6</ele>
        <time>2019-03-02T12:21:19Z</time>
      </trkpt>
      <trkpt lat="46.04013" lon="6.43376">
        <ele>1333.49</ele>
        <time>2019-03-02T12:21:35Z</time>
      </trkpt>
      <trkpt lat="46.04008" lon="6.43365">
        <ele>1336.85</ele>
        <time>2019-03-02T12:21:51Z</time>
      </trkpt>
      <trkpt lat="46.04009" lon="6.43353">
        <ele>1339.73</ele>
        <time>2019-03-02T12:22:05Z</time>
      </trkpt>
      <trkpt lat="46.04003" lon="6.43343">
        <ele>1343.1</ele>
        <time>2019-03-02T12:22:22Z</time>
      </trkpt>
      <trkpt lat="46.03996" lon="6.43332">
        <ele>1345.98</ele>
        <time>2019-03-02T12:22:41Z</time>
      </trkpt>
      <trkpt lat="46.03991" lon="6.43322">
        <ele>1349.35</ele>
        <time>2019-03-02T12:22:57Z</time>
      </trkpt>
      <trkpt lat="46.03986" lon="6.43313">
        <ele>1352.23</ele>
        <time>2019-03-02T12:23:12Z</time>
      </trkpt>
      <trkpt lat="46.03981" lon="6.43309">
        <ele>1354.15</ele>
        <time>2019-03-02T12:23:20Z</time>
      </trkpt>
      <trkpt lat="46.03974" lon="6.43304">
        <ele>1357.52</ele>
        <time>2019-03-02T12:23:31Z</time>
      </trkpt>
      <trkpt lat="46.03967" lon="6.43294">
        <ele>1360.4</ele>
        <time>2019-03-02T12:23:57Z</time>
      </trkpt>
      <trkpt lat="46.03961" lon="6.43288">
        <ele>1363.77</ele>
        <time>2019-03-02T12:24:14Z</time>
      </trkpt>
      <trkpt lat="46.03957" lon="6.43278">
        <ele>1366.65</ele>
        <time>2019-03-02T12:24:31Z</time>
      </trkpt>
      <trkpt lat="46.03952" lon="6.43272">
        <ele>1370.02</ele>
        <time>2019-03-02T12:24:46Z</time>
      </trkpt>
      <trkpt lat="46.03946" lon="6.43265">
        <ele>1372.9</ele>
        <time>2019-03-02T12:25:01Z</time>
      </trkpt>
      <trkpt lat="46.03935" lon="6.43267">
        <ele>1376.26</ele>
        <time>2019-03-02T12:25:18Z</time>
      </trkpt>
      <trkpt lat="46.03934" lon="6.43267">
        <ele>1376.75</ele>
        <time>2019-03-02T12:25:19Z</time>
      </trkpt>
      <trkpt lat="46.03933" lon="6.43266">
        <ele>1376.75</ele>
        <time>2019-03-02T12:25:20Z</time>
      </trkpt>
      <trkpt lat="46.03937" lon="6.43255">
        <ele>1379.15</ele>
        <time>2019-03-02T12:25:45Z</time>
      </trkpt>
      <trkpt lat="46.03934" lon="6.43246">
        <ele>1382.03</ele>
        <time>2019-03-02T12:26:02Z</time>
      </trkpt>
      <trkpt lat="46.03919" lon="6.43248">
        <ele>1385.4</ele>
        <time>2019-03-02T12:26:31Z</time>
      </trkpt>
      <trkpt lat="46.03912" lon="6.4325">
        <ele>1387.8</ele>
        <time>2019-03-02T12:26:43Z</time>
      </trkpt>
      <trkpt lat="46.03899" lon="6.43255">
        <ele>1391.17</ele>
        <time>2019-03-02T12:27:02Z</time>
      </trkpt>
      <trkpt lat="46.03895" lon="6.43256">
        <ele>1392.61</ele>
        <time>2019-03-02T12:27:10Z</time>
      </trkpt>
      <trkpt lat="46.03894" lon="6.4324">
        <ele>1395.49</ele>
        <time>2019-03-02T12:27:30Z</time>
      </trkpt>
      <trkpt lat="46.03896" lon="6.43224">
        <ele>1398.37</ele>
        <time>2019-03-02T12:27:48Z</time>
      </trkpt>
      <trkpt lat="46.03897" lon="6.43209">
        <ele>1401.74</ele>
        <time>2019-03-02T12:28:04Z</time>
      </trkpt>
      <trkpt lat="46.039" lon="6.43192">
        <ele>1405.1</ele>
        <time>2019-03-02T12:28:21Z</time>
      </trkpt>
      <trkpt lat="46.03898" lon="6.43185">
        <ele>1407.99</ele>
        <time>2019-03-02T12:28:37Z</time>
      </trkpt>
      <trkpt lat="46.03891" lon="6.43183">
        <ele>1411.35</ele>
        <time>2019-03-02T12:28:54Z</time>
      </trkpt>
      <trkpt lat="46.03885" lon="6.43184">
        <ele>1414.24</ele>
        <time>2019-03-02T12:29:12Z</time>
      </trkpt>
      <trkpt lat="46.03881" lon="6.43181">
        <ele>1416.16</ele>
        <time>2019-03-02T12:29:36Z</time>
      </trkpt>
      <trkpt lat="46.03872" lon="6.43176">
        <ele>1419.04</ele>
        <time>2019-03-02T12:30:15Z</time>
      </trkpt>
      <trkpt lat="46.03875" lon="6.43163">
        <ele>1422.41</ele>
        <time>2019-03-02T12:30:56Z</time>
      </trkpt>
      <trkpt lat="46.03871" lon="6.43155">
        <ele>1425.29</ele>
        <time>2019-03-02T12:31:12Z</time>
      </trkpt>
      <trkpt lat="46.0386" lon="6.43152">
        <ele>1428.18</ele>
        <time>2019-03-02T12:31:30Z</time>
      </trkpt>
      <trkpt lat="46.03853" lon="6.43148">
        <ele>1430.1</ele>
        <time>2019-03-02T12:31:44Z</time>
      </trkpt>
      <trkpt lat="46.03856" lon="6.43132">
        <ele>1432.98</ele>
        <time>2019-03-02T12:32:47Z</time>
      </trkpt>
      <trkpt lat="46.03858" lon="6.43124">
        <ele>1436.35</ele>
        <time>2019-03-02T12:33:02Z</time>
      </trkpt>
      <trkpt lat="46.03847" lon="6.43124">
        <ele>1439.23</ele>
        <time>2019-03-02T12:33:19Z</time>
      </trkpt>
      <trkpt lat="46.03839" lon="6.43117">
        <ele>1442.6</ele>
        <time>2019-03-02T12:33:40Z</time>
      </trkpt>
      <trkpt lat="46.03832" lon="6.43109">
        <ele>1445.48</ele>
        <time>2019-03-02T12:33:54Z</time>
      </trkpt>
      <trkpt lat="46.0383" lon="6.43099">
        <ele>1448.36</ele>
        <time>2019-03-02T12:34:07Z</time>
      </trkpt>
      <trkpt lat="46.03829" lon="6.43087">
        <ele>1451.73</ele>
        <time>2019-03-02T12:34:20Z</time>
      </trkpt>
      <trkpt lat="46.03826" lon="6.43078">
        <ele>1454.13</ele>
        <time>2019-03-02T12:34:55Z</time>
      </trkpt>
      <trkpt lat="46.03826" lon="6.43062">
        <ele>1457.02</ele>
        <time>2019-03-02T12:35:13Z</time>
      </trkpt>
      <trkpt lat="46.03826" lon="6.43047">
        <ele>1460.38</ele>
        <time>2019-03-02T12:35:30Z</time>
      </trkpt>
      <trkpt lat="46.03825" lon="6.43032">
        <ele>1463.26</ele>
        <time>2019-03-02T12:35:56Z</time>
      </trkpt>
      <trkpt lat="46.03827" lon="6.4302">
        <ele>1466.63</ele>
        <time>2019-03-02T12:36:11Z</time>
      </trkpt>
      <trkpt lat="46.03827" lon="6.43002">
        <ele>1469.51</ele>
        <time>2019-03-02T12:36:29Z</time>
      </trkpt>
      <trkpt lat="46.03832" lon="6.42989">
        <ele>1472.4</ele>
        <time>2019-03-02T12:36:47Z</time>
      </trkpt>
      <trkpt lat="46.03842" lon="6.42972">
        <ele>1475.76</ele>
        <time>2019-03-02T12:37:17Z</time>
      </trkpt>
      <trkpt lat="46.03847" lon="6.42957">
        <ele>1478.65</ele>
        <time>2019-03-02T12:37:34Z</time>
      </trkpt>
      <trkpt lat="46.03851" lon="6.42943">
        <ele>1481.53</ele>
        <time>2019-03-02T12:37:52Z</time>
      </trkpt>
      <trkpt lat="46.03856" lon="6.42936">
        <ele>1484.89</ele>
        <time>2019-03-02T12:38:06Z</time>
      </trkpt>
      <trkpt lat="46.03862" lon="6.42927">
        <ele>1487.78</ele>
        <time>2019-03-02T12:38:22Z</time>
      </trkpt>
      <trkpt lat="46.0386" lon="6.4292">
        <ele>1491.14</ele>
        <time>2019-03-02T12:38:37Z</time>
      </trkpt>
      <trkpt lat="46.03856" lon="6.42911">
        <ele>1494.03</ele>
        <time>2019-03-02T12:38:54Z</time>
      </trkpt>
      <trkpt lat="46.03846" lon="6.42907">
        <ele>1497.39</ele>
        <time>2019-03-02T12:39:51Z</time>
      </trkpt>
      <trkpt lat="46.03836" lon="6.42902">
        <ele>1500.27</ele>
        <time>2019-03-02T12:40:09Z</time>
      </trkpt>
      <trkpt lat="46.03832" lon="6.42897">
        <ele>1502.68</ele>
        <time>2019-03-02T12:40:57Z</time>
      </trkpt>
      <trkpt lat="46.03829" lon="6.42892">
        <ele>1504.12</ele>
        <time>2019-03-02T12:43:04Z</time>
      </trkpt>
      <trkpt lat="46.03829" lon="6.42893">
        <ele>1504.12</ele>
        <time>2019-03-02T12:43:40Z</time>
      </trkpt>
      <trkpt lat="46.03829" lon="6.42893">
        <ele>1504.12</ele>
        <time>2019-03-02T12:44:16Z</time>
      </trkpt>
      <trkpt lat="46.03828" lon="6.42894">
        <ele>1504.12</ele>
        <time>2019-03-02T12:45:20Z</time>
      </trkpt>
      <trkpt lat="46.03828" lon="6.42892">
        <ele>1504.12</ele>
        <time>2019-03-02T12:46:53Z</time>
      </trkpt>
      <trkpt lat="46.03827" lon="6.42894">
        <ele>1505.08</ele>
        <time>2019-03-02T12:47:53Z</time>
      </trkpt>
      <trkpt lat="46.03818" lon="6.42889">
        <ele>1507.97</ele>
        <time>2019-03-02T12:48:11Z</time>
      </trkpt>
      <trkpt lat="46.03811" lon="6.42882">
        <ele>1511.33</ele>
        <time>2019-03-02T12:48:28Z</time>
      </trkpt>
      <trkpt lat="46.03806" lon="6.42874">
        <ele>1514.21</ele>
        <time>2019-03-02T12:48:42Z</time>
      </trkpt>
      <trkpt lat="46.03801" lon="6.42864">
        <ele>1517.58</ele>
        <time>2019-03-02T12:49:25Z</time>
      </trkpt>
      <trkpt lat="46.03795" lon="6.42854">
        <ele>1520.46</ele>
        <time>2019-03-02T12:49:41Z</time>
      </trkpt>
      <trkpt lat="46.03791" lon="6.42844">
        <ele>1523.83</ele>
        <time>2019-03-02T12:49:55Z</time>
      </trkpt>
      <trkpt lat="46.03786" lon="6.42831">
        <ele>1526.71</ele>
        <time>2019-03-02T12:50:13Z</time>
      </trkpt>
      <trkpt lat="46.03785" lon="6.42818">
        <ele>1529.59</ele>
        <time>2019-03-02T12:50:32Z</time>
      </trkpt>
      <trkpt lat="46.03786" lon="6.42808">
        <ele>1532.96</ele>
        <time>2019-03-02T12:50:48Z</time>
      </trkpt>
      <trkpt lat="46.03795" lon="6.42801">
        <ele>1535.84</ele>
        <time>2019-03-02T12:51:07Z</time>
      </trkpt>
      <trkpt lat="46.03801" lon="6.42795">
        <ele>1539.21</ele>
        <time>2019-03-02T12:51:25Z</time>
      </trkpt>
      <trkpt lat="46.03799" lon="6.42796">
        <ele>1539.69</ele>
        <time>2019-03-02T12:53:06Z</time>
      </trkpt>
      <trkpt lat="46.03803" lon="6.42791">
        <ele>1541.13</ele>
        <time>2019-03-02T12:53:15Z</time>
      </trkpt>
      <trkpt lat="46.03811" lon="6.42778">
        <ele>1544.01</ele>
        <time>2019-03-02T12:53:32Z</time>
      </trkpt>
      <trkpt lat="46.03815" lon="6.4277">
        <ele>1547.38</ele>
        <time>2019-03-02T12:53:44Z</time>
      </trkpt>
      <trkpt lat="46.03815" lon="6.42761">
        <ele>1550.74</ele>
        <time>2019-03-02T12:53:59Z</time>
      </trkpt>
      <trkpt lat="46.03818" lon="6.42751">
        <ele>1553.63</ele>
        <time>2019-03-02T12:54:21Z</time>
      </trkpt>
      <trkpt lat="46.03821" lon="6.4274">
        <ele>1556.51</ele>
        <time>2019-03-02T12:54:37Z</time>
      </trkpt>
      <trkpt lat="46.03824" lon="6.42726">
        <ele>1559.88</ele>
        <time>2019-03-02T12:55:00Z</time>
      </trkpt>
      <trkpt lat="46.03823" lon="6.42726">
        <ele>1560.36</ele>
        <time>2019-03-02T12:55:05Z</time>
      </trkpt>
      <trkpt lat="46.03825" lon="6.42716">
        <ele>1563.24</ele>
        <time>2019-03-02T12:55:43Z</time>
      </trkpt>
      <trkpt lat="46.03825" lon="6.42705">
        <ele>1566.61</ele>
        <time>2019-03-02T12:56:01Z</time>
      </trkpt>
      <trkpt lat="46.03825" lon="6.42694">
        <ele>1569.49</ele>
        <time>2019-03-02T12:56:17Z</time>
      </trkpt>
      <trkpt lat="46.03831" lon="6.42689">
        <ele>1572.37</ele>
        <time>2019-03-02T12:56:33Z</time>
      </trkpt>
      <trkpt lat="46.03833" lon="6.4269">
        <ele>1573.82</ele>
        <time>2019-03-02T12:56:38Z</time>
      </trkpt>
      <trkpt lat="46.03842" lon="6.42692">
        <ele>1576.7</ele>
        <time>2019-03-02T12:57:00Z</time>
      </trkpt>
      <trkpt lat="46.03849" lon="6.42691">
        <ele>1578.62</ele>
        <time>2019-03-02T12:57:11Z</time>
      </trkpt>
      <trkpt lat="46.03862" lon="6.42689">
        <ele>1581.99</ele>
        <time>2019-03-02T12:57:31Z</time>
      </trkpt>
      <trkpt lat="46.03861" lon="6.42691">
        <ele>1581.99</ele>
        <time>2019-03-02T12:59:59Z</time>
      </trkpt>
      <trkpt lat="46.03863" lon="6.42684">
        <ele>1584.87</ele>
        <time>2019-03-02T13:01:09Z</time>
      </trkpt>
      <trkpt lat="46.0386" lon="6.42673">
        <ele>1588.24</ele>
        <time>2019-03-02T13:01:23Z</time>
      </trkpt>
      <trkpt lat="46.03857" lon="6.4266">
        <ele>1591.6</ele>
        <time>2019-03-02T13:01:39Z</time>
      </trkpt>
      <trkpt lat="46.03866" lon="6.42652">
        <ele>1594.48</ele>
        <time>2019-03-02T13:01:55Z</time>
      </trkpt>
      <trkpt lat="46.03876" lon="6.42651">
        <ele>1597.37</ele>
        <time>2019-03-02T13:02:14Z</time>
      </trkpt>
      <trkpt lat="46.03886" lon="6.42651">
        <ele>1600.73</ele>
        <time>2019-03-02T13:02:36Z</time>
      </trkpt>
      <trkpt lat="46.03893" lon="6.42647">
        <ele>1603.62</ele>
        <time>2019-03-02T13:02:55Z</time>
      </trkpt>
      <trkpt lat="46.03902" lon="6.42646">
        <ele>1606.98</ele>
        <time>2019-03-02T13:03:13Z</time>
      </trkpt>
      <trkpt lat="46.03913" lon="6.42641">
        <ele>1609.86</ele>
        <time>2019-03-02T13:03:31Z</time>
      </trkpt>
      <trkpt lat="46.03922" lon="6.4264">
        <ele>1613.23</ele>
        <time>2019-03-02T13:03:47Z</time>
      </trkpt>
      <trkpt lat="46.03932" lon="6.42638">
        <ele>1616.11</ele>
        <time>2019-03-02T13:04:05Z</time>
      </trkpt>
      <trkpt lat="46.03944" lon="6.42638">
        <ele>1619</ele>
        <time>2019-03-02T13:04:25Z</time>
      </trkpt>
      <trkpt lat="46.03956" lon="6.42636">
        <ele>1622.36</ele>
        <time>2019-03-02T13:04:45Z</time>
      </trkpt>
      <trkpt lat="46.03957" lon="6.42634">
        <ele>1622.36</ele>
        <time>2019-03-02T13:04:46Z</time>
      </trkpt>
      <trkpt lat="46.03968" lon="6.42628">
        <ele>1625.25</ele>
        <time>2019-03-02T13:05:05Z</time>
      </trkpt>
      <trkpt lat="46.03982" lon="6.42619">
        <ele>1628.61</ele>
        <time>2019-03-02T13:05:28Z</time>
      </trkpt>
      <trkpt lat="46.03995" lon="6.42611">
        <ele>1631.49</ele>
        <time>2019-03-02T13:06:05Z</time>
      </trkpt>
      <trkpt lat="46.04006" lon="6.42603">
        <ele>1634.38</ele>
        <time>2019-03-02T13:06:23Z</time>
      </trkpt>
      <trkpt lat="46.04014" lon="6.42595">
        <ele>1637.74</ele>
        <time>2019-03-02T13:06:39Z</time>
      </trkpt>
      <trkpt lat="46.0402" lon="6.42586">
        <ele>1640.63</ele>
        <time>2019-03-02T13:06:54Z</time>
      </trkpt>
      <trkpt lat="46.04026" lon="6.42575">
        <ele>1643.99</ele>
        <time>2019-03-02T13:07:09Z</time>
      </trkpt>
      <trkpt lat="46.04032" lon="6.42561">
        <ele>1647.36</ele>
        <time>2019-03-02T13:07:25Z</time>
      </trkpt>
      <trkpt lat="46.04036" lon="6.42548">
        <ele>1650.24</ele>
        <time>2019-03-02T13:07:40Z</time>
      </trkpt>
      <trkpt lat="46.04039" lon="6.42535">
        <ele>1653.12</ele>
        <time>2019-03-02T13:07:57Z</time>
      </trkpt>
      <trkpt lat="46.04044" lon="6.42532">
        <ele>1656.01</ele>
        <time>2019-03-02T13:08:16Z</time>
      </trkpt>
      <trkpt lat="46.04047" lon="6.42522">
        <ele>1659.37</ele>
        <time>2019-03-02T13:09:00Z</time>
      </trkpt>
      <trkpt lat="46.0405" lon="6.42509">
        <ele>1662.26</ele>
        <time>2019-03-02T13:09:23Z</time>
      </trkpt>
      <trkpt lat="46.04058" lon="6.42506">
        <ele>1665.62</ele>
        <time>2019-03-02T13:09:48Z</time>
      </trkpt>
      <trkpt lat="46.04058" lon="6.42508">
        <ele>1665.62</ele>
        <time>2019-03-02T13:09:49Z</time>
      </trkpt>
      <trkpt lat="46.04059" lon="6.4252">
        <ele>1664.18</ele>
        <time>2019-03-02T13:10:27Z</time>
      </trkpt>
      <trkpt lat="46.04065" lon="6.42504">
        <ele>1667.06</ele>
        <time>2019-03-02T13:11:41Z</time>
      </trkpt>
      <trkpt lat="46.04069" lon="6.42493">
        <ele>1670.43</ele>
        <time>2019-03-02T13:11:57Z</time>
      </trkpt>
      <trkpt lat="46.04074" lon="6.42483">
        <ele>1673.79</ele>
        <time>2019-03-02T13:12:12Z</time>
      </trkpt>
      <trkpt lat="46.04081" lon="6.42476">
        <ele>1676.68</ele>
        <time>2019-03-02T13:12:29Z</time>
      </trkpt>
      <trkpt lat="46.04087" lon="6.42468">
        <ele>1679.56</ele>
        <time>2019-03-02T13:12:48Z</time>
      </trkpt>
      <trkpt lat="46.04094" lon="6.42457">
        <ele>1682.44</ele>
        <time>2019-03-02T13:13:04Z</time>
      </trkpt>
      <trkpt lat="46.04099" lon="6.42451">
        <ele>1685.81</ele>
        <time>2019-03-02T13:13:21Z</time>
      </trkpt>
      <trkpt lat="46.04104" lon="6.42442">
        <ele>1688.69</ele>
        <time>2019-03-02T13:13:37Z</time>
      </trkpt>
      <trkpt lat="46.0411" lon="6.4243">
        <ele>1692.06</ele>
        <time>2019-03-02T13:13:56Z</time>
      </trkpt>
      <trkpt lat="46.04113" lon="6.42429">
        <ele>1693.02</ele>
        <time>2019-03-02T13:15:11Z</time>
      </trkpt>
      <trkpt lat="46.0411" lon="6.42431">
        <ele>1693.02</ele>
        <time>2019-03-02T13:16:00Z</time>
      </trkpt>
      <trkpt lat="46.04105" lon="6.42428">
        <ele>1693.02</ele>
        <time>2019-03-02T13:17:14Z</time>
      </trkpt>
      <trkpt lat="46.04107" lon="6.42429">
        <ele>1693.02</ele>
        <time>2019-03-02T13:18:44Z</time>
      </trkpt>
      <trkpt lat="46.04113" lon="6.42425">
        <ele>1695.9</ele>
        <time>2019-03-02T13:21:41Z</time>
      </trkpt>
      <trkpt lat="46.04118" lon="6.42412">
        <ele>1699.27</ele>
        <time>2019-03-02T13:21:57Z</time>
      </trkpt>
      <trkpt lat="46.04123" lon="6.42399">
        <ele>1702.15</ele>
        <time>2019-03-02T13:22:12Z</time>
      </trkpt>
      <trkpt lat="46.04124" lon="6.42395">
        <ele>1702.63</ele>
        <time>2019-03-02T13:22:16Z</time>
      </trkpt>
      <trkpt lat="46.04129" lon="6.42382">
        <ele>1706</ele>
        <time>2019-03-02T13:22:34Z</time>
      </trkpt>
      <trkpt lat="46.0413" lon="6.42372">
        <ele>1708.88</ele>
        <time>2019-03-02T13:23:13Z</time>
      </trkpt>
      <trkpt lat="46.04136" lon="6.4236">
        <ele>1712.25</ele>
        <time>2019-03-02T13:23:30Z</time>
      </trkpt>
      <trkpt lat="46.0414" lon="6.42359">
        <ele>1713.21</ele>
        <time>2019-03-02T13:23:36Z</time>
      </trkpt>
      <trkpt lat="46.0415" lon="6.42359">
        <ele>1716.09</ele>
        <time>2019-03-02T13:23:54Z</time>
      </trkpt>
      <trkpt lat="46.04159" lon="6.42359">
        <ele>1718.97</ele>
        <time>2019-03-02T13:24:41Z</time>
      </trkpt>
      <trkpt lat="46.04168" lon="6.42358">
        <ele>1722.34</ele>
        <time>2019-03-02T13:24:57Z</time>
      </trkpt>
      <trkpt lat="46.04177" lon="6.42353">
        <ele>1725.7</ele>
        <time>2019-03-02T13:25:13Z</time>
      </trkpt>
      <trkpt lat="46.04186" lon="6.42363">
        <ele>1728.59</ele>
        <time>2019-03-02T13:25:33Z</time>
      </trkpt>
      <trkpt lat="46.04196" lon="6.4237">
        <ele>1731.47</ele>
        <time>2019-03-02T13:25:50Z</time>
      </trkpt>
      <trkpt lat="46.04209" lon="6.42375">
        <ele>1734.84</ele>
        <time>2019-03-02T13:26:15Z</time>
      </trkpt>
      <trkpt lat="46.04211" lon="6.42364">
        <ele>1737.72</ele>
        <time>2019-03-02T13:26:46Z</time>
      </trkpt>
      <trkpt lat="46.04206" lon="6.42353">
        <ele>1740.6</ele>
        <time>2019-03-02T13:27:05Z</time>
      </trkpt>
      <trkpt lat="46.04201" lon="6.4234">
        <ele>1743.97</ele>
        <time>2019-03-02T13:27:25Z</time>
      </trkpt>
      <trkpt lat="46.04204" lon="6.42331">
        <ele>1747.33</ele>
        <time>2019-03-02T13:27:40Z</time>
      </trkpt>
      <trkpt lat="46.04214" lon="6.42322">
        <ele>1750.22</ele>
        <time>2019-03-02T13:28:00Z</time>
      </trkpt>
      <trkpt lat="46.04218" lon="6.42316">
        <ele>1753.58</ele>
        <time>2019-03-02T13:28:15Z</time>
      </trkpt>
      <trkpt lat="46.04211" lon="6.42302">
        <ele>1756.47</ele>
        <time>2019-03-02T13:28:39Z</time>
      </trkpt>
      <trkpt lat="46.04216" lon="6.42296">
        <ele>1759.83</ele>
        <time>2019-03-02T13:29:07Z</time>
      </trkpt>
      <trkpt lat="46.04216" lon="6.4229">
        <ele>1762.71</ele>
        <time>2019-03-02T13:29:43Z</time>
      </trkpt>
      <trkpt lat="46.04211" lon="6.4228">
        <ele>1765.6</ele>
        <time>2019-03-02T13:29:59Z</time>
      </trkpt>
      <trkpt lat="46.04206" lon="6.42269">
        <ele>1768.96</ele>
        <time>2019-03-02T13:30:16Z</time>
      </trkpt>
      <trkpt lat="46.04206" lon="6.42256">
        <ele>1771.85</ele>
        <time>2019-03-02T13:30:36Z</time>
      </trkpt>
      <trkpt lat="46.04202" lon="6.42243">
        <ele>1775.21</ele>
        <time>2019-03-02T13:30:54Z</time>
      </trkpt>
      <trkpt lat="46.04199" lon="6.4223">
        <ele>1778.1</ele>
        <time>2019-03-02T13:31:12Z</time>
      </trkpt>
      <trkpt lat="46.04191" lon="6.4222">
        <ele>1780.98</ele>
        <time>2019-03-02T13:31:31Z</time>
      </trkpt>
      <trkpt lat="46.04186" lon="6.42206">
        <ele>1784.34</ele>
        <time>2019-03-02T13:31:51Z</time>
      </trkpt>
      <trkpt lat="46.04178" lon="6.42187">
        <ele>1787.23</ele>
        <time>2019-03-02T13:32:21Z</time>
      </trkpt>
      <trkpt lat="46.04172" lon="6.42171">
        <ele>1790.59</ele>
        <time>2019-03-02T13:32:49Z</time>
      </trkpt>
      <trkpt lat="46.04168" lon="6.42158">
        <ele>1793.48</ele>
        <time>2019-03-02T13:33:05Z</time>
      </trkpt>
      <trkpt lat="46.04167" lon="6.42144">
        <ele>1796.36</ele>
        <time>2019-03-02T13:33:24Z</time>
      </trkpt>
      <trkpt lat="46.04163" lon="6.42123">
        <ele>1799.73</ele>
        <time>2019-03-02T13:33:48Z</time>
      </trkpt>
      <trkpt lat="46.04158" lon="6.42107">
        <ele>1802.61</ele>
        <time>2019-03-02T13:34:07Z</time>
      </trkpt>
      <trkpt lat="46.04161" lon="6.42098">
        <ele>1805.97</ele>
        <time>2019-03-02T13:34:23Z</time>
      </trkpt>
      <trkpt lat="46.0417" lon="6.42092">
        <ele>1808.86</ele>
        <time>2019-03-02T13:34:43Z</time>
      </trkpt>
      <trkpt lat="46.04171" lon="6.42084">
        <ele>1812.22</ele>
        <time>2019-03-02T13:35:06Z</time>
      </trkpt>
      <trkpt lat="46.04182" lon="6.42081">
        <ele>1815.11</ele>
        <time>2019-03-02T13:35:26Z</time>
      </trkpt>
      <trkpt lat="46.04183" lon="6.42068">
        <ele>1817.99</ele>
        <time>2019-03-02T13:35:52Z</time>
      </trkpt>
      <trkpt lat="46.0418" lon="6.42058">
        <ele>1821.35</ele>
        <time>2019-03-02T13:36:26Z</time>
      </trkpt>
      <trkpt lat="46.04184" lon="6.42043">
        <ele>1824.24</ele>
        <time>2019-03-02T13:36:44Z</time>
      </trkpt>
      <trkpt lat="46.04187" lon="6.42028">
        <ele>1827.6</ele>
        <time>2019-03-02T13:37:01Z</time>
      </trkpt>
      <trkpt lat="46.04193" lon="6.42024">
        <ele>1830.49</ele>
        <time>2019-03-02T13:37:16Z</time>
      </trkpt>
      <trkpt lat="46.04203" lon="6.42019">
        <ele>1833.37</ele>
        <time>2019-03-02T13:37:36Z</time>
      </trkpt>
      <trkpt lat="46.04215" lon="6.42013">
        <ele>1836.74</ele>
        <time>2019-03-02T13:37:56Z</time>
      </trkpt>
      <trkpt lat="46.04216" lon="6.42005">
        <ele>1839.62</ele>
        <time>2019-03-02T13:38:13Z</time>
      </trkpt>
      <trkpt lat="46.04212" lon="6.41992">
        <ele>1842.98</ele>
        <time>2019-03-02T13:38:31Z</time>
      </trkpt>
      <trkpt lat="46.04211" lon="6.41982">
        <ele>1845.87</ele>
        <time>2019-03-02T13:38:48Z</time>
      </trkpt>
      <trkpt lat="46.04225" lon="6.41978">
        <ele>1849.23</ele>
        <time>2019-03-02T13:39:15Z</time>
      </trkpt>
      <trkpt lat="46.04238" lon="6.41973">
        <ele>1852.12</ele>
        <time>2019-03-02T13:39:38Z</time>
      </trkpt>
      <trkpt lat="46.04246" lon="6.41969">
        <ele>1855</ele>
        <time>2019-03-02T13:40:02Z</time>
      </trkpt>
      <trkpt lat="46.04257" lon="6.41963">
        <ele>1857.4</ele>
        <time>2019-03-02T13:40:35Z</time>
      </trkpt>
      <trkpt lat="46.04263" lon="6.41956">
        <ele>1859.81</ele>
        <time>2019-03-02T13:42:10Z</time>
      </trkpt>
      <trkpt lat="46.04261" lon="6.41959">
        <ele>1859.81</ele>
        <time>2019-03-02T13:43:02Z</time>
      </trkpt>
      <trkpt lat="46.04261" lon="6.4196">
        <ele>1859.81</ele>
        <time>2019-03-02T13:44:18Z</time>
      </trkpt>
      <trkpt lat="46.04271" lon="6.41956">
        <ele>1862.69</ele>
        <time>2019-03-02T13:48:40Z</time>
      </trkpt>
      <trkpt lat="46.04266" lon="6.41946">
        <ele>1865.58</ele>
        <time>2019-03-02T13:49:14Z</time>
      </trkpt>
      <trkpt lat="46.04255" lon="6.41934">
        <ele>1868.94</ele>
        <time>2019-03-02T13:49:36Z</time>
      </trkpt>
      <trkpt lat="46.04264" lon="6.41927">
        <ele>1870.86</ele>
        <time>2019-03-02T13:50:05Z</time>
      </trkpt>
      <trkpt lat="46.04274" lon="6.41924">
        <ele>1873.75</ele>
        <time>2019-03-02T13:50:28Z</time>
      </trkpt>
      <trkpt lat="46.04286" lon="6.41919">
        <ele>1876.63</ele>
        <time>2019-03-02T13:50:47Z</time>
      </trkpt>
      <trkpt lat="46.04294" lon="6.41914">
        <ele>1880</ele>
        <time>2019-03-02T13:51:03Z</time>
      </trkpt>
      <trkpt lat="46.04304" lon="6.41905">
        <ele>1882.88</ele>
        <time>2019-03-02T13:51:19Z</time>
      </trkpt>
      <trkpt lat="46.04311" lon="6.41901">
        <ele>1885.76</ele>
        <time>2019-03-02T13:51:36Z</time>
      </trkpt>
      <trkpt lat="46.04311" lon="6.41891">
        <ele>1889.13</ele>
        <time>2019-03-02T13:52:09Z</time>
      </trkpt>
      <trkpt lat="46.04305" lon="6.41879">
        <ele>1892.01</ele>
        <time>2019-03-02T13:52:34Z</time>
      </trkpt>
      <trkpt lat="46.04305" lon="6.41869">
        <ele>1895.38</ele>
        <time>2019-03-02T13:52:48Z</time>
      </trkpt>
      <trkpt lat="46.04301" lon="6.41868">
        <ele>1895.38</ele>
        <time>2019-03-02T13:56:02Z</time>
      </trkpt>
      <trkpt lat="46.04301" lon="6.41868">
        <ele>1895.86</ele>
        <time>2019-03-02T13:57:59Z</time>
      </trkpt>
      <trkpt lat="46.04301" lon="6.41871">
        <ele>1895.38</ele>
        <time>2019-03-02T14:01:28Z</time>
      </trkpt>
      <trkpt lat="46.04305" lon="6.41869">
        <ele>1893.93</ele>
        <time>2019-03-02T14:02:58Z</time>
      </trkpt>
      <trkpt lat="46.04306" lon="6.41871">
        <ele>1894.42</ele>
        <time>2019-03-02T14:03:40Z</time>
      </trkpt>
      <trkpt lat="46.04305" lon="6.41871">
        <ele>1893.93</ele>
        <time>2019-03-02T14:04:25Z</time>
      </trkpt>
      <trkpt lat="46.04305" lon="6.4187">
        <ele>1894.42</ele>
        <time>2019-03-02T14:05:49Z</time>
      </trkpt>
      <trkpt lat="46.04305" lon="6.4187">
        <ele>1893.93</ele>
        <time>2019-03-02T14:08:04Z</time>
      </trkpt>
      <trkpt lat="46.04305" lon="6.41869">
        <ele>1893.93</ele>
        <time>2019-03-02T14:11:06Z</time>
      </trkpt>
      <trkpt lat="46.04304" lon="6.4187">
        <ele>1893.45</ele>
        <time>2019-03-02T14:17:49Z</time>
      </trkpt>
      <trkpt lat="46.04304" lon="6.41869">
        <ele>1893.93</ele>
        <time>2019-03-02T14:19:56Z</time>
      </trkpt>
      <trkpt lat="46.04303" lon="6.41867">
        <ele>1893.45</ele>
        <time>2019-03-02T14:23:11Z</time>
      </trkpt>
      <trkpt lat="46.04304" lon="6.41868">
        <ele>1893.45</ele>
        <time>2019-03-02T14:26:44Z</time>
      </trkpt>
      <trkpt lat="46.04303" lon="6.41865">
        <ele>1893.45</ele>
        <time>2019-03-02T14:29:57Z</time>
      </trkpt>
      <trkpt lat="46.04304" lon="6.41869">
        <ele>1892.97</ele>
        <time>2019-03-02T14:33:06Z</time>
      </trkpt>
      <trkpt lat="46.04304" lon="6.41868">
        <ele>1892.97</ele>
        <time>2019-03-02T14:35:53Z</time>
      </trkpt>
      <trkpt lat="46.04302" lon="6.41868">
        <ele>1893.45</ele>
        <time>2019-03-02T14:44:15Z</time>
      </trkpt>
      <trkpt lat="46.04303" lon="6.41875">
        <ele>1892.97</ele>
        <time>2019-03-02T14:51:47Z</time>
      </trkpt>
      <trkpt lat="46.04302" lon="6.41877">
        <ele>1892.97</ele>
        <time>2019-03-02T14:51:48Z</time>
      </trkpt>
      <trkpt lat="46.04294" lon="6.4188">
        <ele>1890.57</ele>
        <time>2019-03-02T14:52:02Z</time>
      </trkpt>
      <trkpt lat="46.04293" lon="6.41882">
        <ele>1890.57</ele>
        <time>2019-03-02T14:52:03Z</time>
      </trkpt>
      <trkpt lat="46.04292" lon="6.41885">
        <ele>1890.09</ele>
        <time>2019-03-02T14:52:04Z</time>
      </trkpt>
      <trkpt lat="46.04291" lon="6.41889">
        <ele>1889.13</ele>
        <time>2019-03-02T14:52:05Z</time>
      </trkpt>
      <trkpt lat="46.04289" lon="6.41892">
        <ele>1887.69</ele>
        <time>2019-03-02T14:52:06Z</time>
      </trkpt>
      <trkpt lat="46.04287" lon="6.41896">
        <ele>1886.72</ele>
        <time>2019-03-02T14:52:07Z</time>
      </trkpt>
      <trkpt lat="46.04285" lon="6.41898">
        <ele>1885.28</ele>
        <time>2019-03-02T14:52:08Z</time>
      </trkpt>
      <trkpt lat="46.04283" lon="6.41899">
        <ele>1883.36</ele>
        <time>2019-03-02T14:52:09Z</time>
      </trkpt>
      <trkpt lat="46.04281" lon="6.41898">
        <ele>1882.4</ele>
        <time>2019-03-02T14:52:10Z</time>
      </trkpt>
      <trkpt lat="46.0428" lon="6.41898">
        <ele>1882.4</ele>
        <time>2019-03-02T14:52:11Z</time>
      </trkpt>
      <trkpt lat="46.04277" lon="6.41898">
        <ele>1881.92</ele>
        <time>2019-03-02T14:52:24Z</time>
      </trkpt>
      <trkpt lat="46.04276" lon="6.41898">
        <ele>1881.92</ele>
        <time>2019-03-02T14:52:25Z</time>
      </trkpt>
      <trkpt lat="46.04275" lon="6.41898">
        <ele>1881.92</ele>
        <time>2019-03-02T14:52:26Z</time>
      </trkpt>
      <trkpt lat="46.04274" lon="6.41899">
        <ele>1881.44</ele>
        <time>2019-03-02T14:52:27Z</time>
      </trkpt>
      <trkpt lat="46.04273" lon="6.419">
        <ele>1880.96</ele>
        <time>2019-03-02T14:52:28Z</time>
      </trkpt>
      <trkpt lat="46.04274" lon="6.41902">
        <ele>1880.48</ele>
        <time>2019-03-02T14:52:29Z</time>
      </trkpt>
      <trkpt lat="46.04275" lon="6.41904">
        <ele>1880</ele>
        <time>2019-03-02T14:52:30Z</time>
      </trkpt>
      <trkpt lat="46.04275" lon="6.41905">
        <ele>1879.51</ele>
        <time>2019-03-02T14:52:31Z</time>
      </trkpt>
      <trkpt lat="46.04274" lon="6.41908">
        <ele>1879.03</ele>
        <time>2019-03-02T14:52:32Z</time>
      </trkpt>
      <trkpt lat="46.04273" lon="6.41911">
        <ele>1878.55</ele>
        <time>2019-03-02T14:52:33Z</time>
      </trkpt>
      <trkpt lat="46.04271" lon="6.41913">
        <ele>1877.59</ele>
        <time>2019-03-02T14:52:34Z</time>
      </trkpt>
      <trkpt lat="46.0427" lon="6.41917">
        <ele>1876.63</ele>
        <time>2019-03-02T14:52:35Z</time>
      </trkpt>
      <trkpt lat="46.04269" lon="6.41922">
        <ele>1875.67</ele>
        <time>2019-03-02T14:52:36Z</time>
      </trkpt>
      <trkpt lat="46.04268" lon="6.41929">
        <ele>1874.71</ele>
        <time>2019-03-02T14:52:37Z</time>
      </trkpt>
      <trkpt lat="46.04266" lon="6.41936">
        <ele>1872.79</ele>
        <time>2019-03-02T14:52:38Z</time>
      </trkpt>
      <trkpt lat="46.04262" lon="6.4194">
        <ele>1869.9</ele>
        <time>2019-03-02T14:52:39Z</time>
      </trkpt>
      <trkpt lat="46.0426" lon="6.41943">
        <ele>1867.98</ele>
        <time>2019-03-02T14:52:40Z</time>
      </trkpt>
      <trkpt lat="46.04258" lon="6.41947">
        <ele>1866.54</ele>
        <time>2019-03-02T14:52:41Z</time>
      </trkpt>
      <trkpt lat="46.04256" lon="6.4195">
        <ele>1865.58</ele>
        <time>2019-03-02T14:52:42Z</time>
      </trkpt>
      <trkpt lat="46.04253" lon="6.41951">
        <ele>1863.17</ele>
        <time>2019-03-02T14:52:43Z</time>
      </trkpt>
      <trkpt lat="46.04251" lon="6.41951">
        <ele>1861.25</ele>
        <time>2019-03-02T14:52:44Z</time>
      </trkpt>
      <trkpt lat="46.0425" lon="6.41951">
        <ele>1860.29</ele>
        <time>2019-03-02T14:52:45Z</time>
      </trkpt>
      <trkpt lat="46.04249" lon="6.41951">
        <ele>1859.81</ele>
        <time>2019-03-02T14:52:47Z</time>
      </trkpt>
      <trkpt lat="46.04246" lon="6.41952">
        <ele>1859.33</ele>
        <time>2019-03-02T14:52:59Z</time>
      </trkpt>
      <trkpt lat="46.04245" lon="6.41953">
        <ele>1859.33</ele>
        <time>2019-03-02T14:53:00Z</time>
      </trkpt>
      <trkpt lat="46.04244" lon="6.41956">
        <ele>1858.85</ele>
        <time>2019-03-02T14:53:01Z</time>
      </trkpt>
      <trkpt lat="46.04242" lon="6.41961">
        <ele>1858.37</ele>
        <time>2019-03-02T14:53:02Z</time>
      </trkpt>
      <trkpt lat="46.0424" lon="6.41965">
        <ele>1856.44</ele>
        <time>2019-03-02T14:53:03Z</time>
      </trkpt>
      <trkpt lat="46.04239" lon="6.4197">
        <ele>1855</ele>
        <time>2019-03-02T14:53:04Z</time>
      </trkpt>
      <trkpt lat="46.04238" lon="6.41976">
        <ele>1853.56</ele>
        <time>2019-03-02T14:53:05Z</time>
      </trkpt>
      <trkpt lat="46.04236" lon="6.41982">
        <ele>1851.64</ele>
        <time>2019-03-02T14:53:06Z</time>
      </trkpt>
      <trkpt lat="46.04236" lon="6.41987">
        <ele>1850.19</ele>
        <time>2019-03-02T14:53:07Z</time>
      </trkpt>
      <trkpt lat="46.04236" lon="6.41991">
        <ele>1848.27</ele>
        <time>2019-03-02T14:53:08Z</time>
      </trkpt>
      <trkpt lat="46.04236" lon="6.41994">
        <ele>1844.91</ele>
        <time>2019-03-02T14:53:10Z</time>
      </trkpt>
      <trkpt lat="46.04234" lon="6.41994">
        <ele>1843.95</ele>
        <time>2019-03-02T14:53:21Z</time>
      </trkpt>
      <trkpt lat="46.04233" lon="6.41994">
        <ele>1843.95</ele>
        <time>2019-03-02T14:53:22Z</time>
      </trkpt>
      <trkpt lat="46.04232" lon="6.41999">
        <ele>1842.98</ele>
        <time>2019-03-02T14:53:54Z</time>
      </trkpt>
      <trkpt lat="46.04232" lon="6.42003">
        <ele>1842.5</ele>
        <time>2019-03-02T14:53:55Z</time>
      </trkpt>
      <trkpt lat="46.04232" lon="6.42007">
        <ele>1842.02</ele>
        <time>2019-03-02T14:53:56Z</time>
      </trkpt>
      <trkpt lat="46.04232" lon="6.4201">
        <ele>1840.58</ele>
        <time>2019-03-02T14:53:57Z</time>
      </trkpt>
      <trkpt lat="46.04233" lon="6.42015">
        <ele>1839.14</ele>
        <time>2019-03-02T14:53:58Z</time>
      </trkpt>
      <trkpt lat="46.04234" lon="6.42022">
        <ele>1837.7</ele>
        <time>2019-03-02T14:53:59Z</time>
      </trkpt>
      <trkpt lat="46.04235" lon="6.42032">
        <ele>1835.77</ele>
        <time>2019-03-02T14:54:00Z</time>
      </trkpt>
      <trkpt lat="46.04237" lon="6.42051">
        <ele>1830.97</ele>
        <time>2019-03-02T14:54:02Z</time>
      </trkpt>
      <trkpt lat="46.04237" lon="6.42059">
        <ele>1828.56</ele>
        <time>2019-03-02T14:54:03Z</time>
      </trkpt>
      <trkpt lat="46.04236" lon="6.42064">
        <ele>1826.16</ele>
        <time>2019-03-02T14:54:04Z</time>
      </trkpt>
      <trkpt lat="46.04235" lon="6.42065">
        <ele>1824.24</ele>
        <time>2019-03-02T14:54:05Z</time>
      </trkpt>
      <trkpt lat="46.04234" lon="6.42065">
        <ele>1823.28</ele>
        <time>2019-03-02T14:54:06Z</time>
      </trkpt>
      <trkpt lat="46.04235" lon="6.42065">
        <ele>1822.8</ele>
        <time>2019-03-02T14:54:55Z</time>
      </trkpt>
      <trkpt lat="46.04234" lon="6.42067">
        <ele>1822.8</ele>
        <time>2019-03-02T14:54:56Z</time>
      </trkpt>
      <trkpt lat="46.04234" lon="6.4207">
        <ele>1822.32</ele>
        <time>2019-03-02T14:54:57Z</time>
      </trkpt>
      <trkpt lat="46.04234" lon="6.42074">
        <ele>1821.84</ele>
        <time>2019-03-02T14:54:58Z</time>
      </trkpt>
      <trkpt lat="46.04235" lon="6.42081">
        <ele>1821.35</ele>
        <time>2019-03-02T14:54:59Z</time>
      </trkpt>
      <trkpt lat="46.04236" lon="6.42088">
        <ele>1819.43</ele>
        <time>2019-03-02T14:55:00Z</time>
      </trkpt>
      <trkpt lat="46.0424" lon="6.42106">
        <ele>1815.11</ele>
        <time>2019-03-02T14:55:02Z</time>
      </trkpt>
      <trkpt lat="46.04241" lon="6.42115">
        <ele>1812.22</ele>
        <time>2019-03-02T14:55:03Z</time>
      </trkpt>
      <trkpt lat="46.04239" lon="6.42124">
        <ele>1810.78</ele>
        <time>2019-03-02T14:55:04Z</time>
      </trkpt>
      <trkpt lat="46.04236" lon="6.42131">
        <ele>1807.42</ele>
        <time>2019-03-02T14:55:05Z</time>
      </trkpt>
      <trkpt lat="46.04233" lon="6.42137">
        <ele>1804.53</ele>
        <time>2019-03-02T14:55:06Z</time>
      </trkpt>
      <trkpt lat="46.0423" lon="6.42144">
        <ele>1802.61</ele>
        <time>2019-03-02T14:55:07Z</time>
      </trkpt>
      <trkpt lat="46.04229" lon="6.42153">
        <ele>1800.69</ele>
        <time>2019-03-02T14:55:08Z</time>
      </trkpt>
      <trkpt lat="46.04228" lon="6.42163">
        <ele>1798.28</ele>
        <time>2019-03-02T14:55:09Z</time>
      </trkpt>
      <trkpt lat="46.04228" lon="6.42172">
        <ele>1796.36</ele>
        <time>2019-03-02T14:55:10Z</time>
      </trkpt>
      <trkpt lat="46.04228" lon="6.42182">
        <ele>1794.44</ele>
        <time>2019-03-02T14:55:11Z</time>
      </trkpt>
      <trkpt lat="46.0423" lon="6.42191">
        <ele>1790.59</ele>
        <time>2019-03-02T14:55:14Z</time>
      </trkpt>
      <trkpt lat="46.04231" lon="6.42192">
        <ele>1790.11</ele>
        <time>2019-03-02T14:57:10Z</time>
      </trkpt>
      <trkpt lat="46.04232" lon="6.42192">
        <ele>1790.11</ele>
        <time>2019-03-02T14:57:18Z</time>
      </trkpt>
      <trkpt lat="46.04232" lon="6.42194">
        <ele>1790.11</ele>
        <time>2019-03-02T14:57:19Z</time>
      </trkpt>
      <trkpt lat="46.04232" lon="6.42196">
        <ele>1790.11</ele>
        <time>2019-03-02T14:57:20Z</time>
      </trkpt>
      <trkpt lat="46.04232" lon="6.42198">
        <ele>1789.63</ele>
        <time>2019-03-02T14:57:21Z</time>
      </trkpt>
      <trkpt lat="46.04231" lon="6.42202">
        <ele>1789.15</ele>
        <time>2019-03-02T14:57:49Z</time>
      </trkpt>
      <trkpt lat="46.04231" lon="6.42205">
        <ele>1788.67</ele>
        <time>2019-03-02T14:57:50Z</time>
      </trkpt>
      <trkpt lat="46.04229" lon="6.42207">
        <ele>1787.71</ele>
        <time>2019-03-02T14:57:51Z</time>
      </trkpt>
      <trkpt lat="46.04227" lon="6.42213">
        <ele>1785.31</ele>
        <time>2019-03-02T14:58:57Z</time>
      </trkpt>
      <trkpt lat="46.04227" lon="6.42216">
        <ele>1784.82</ele>
        <time>2019-03-02T14:58:58Z</time>
      </trkpt>
      <trkpt lat="46.04227" lon="6.42219">
        <ele>1784.34</ele>
        <time>2019-03-02T14:58:59Z</time>
      </trkpt>
      <trkpt lat="46.04226" lon="6.42222">
        <ele>1783.38</ele>
        <time>2019-03-02T14:59:00Z</time>
      </trkpt>
      <trkpt lat="46.04224" lon="6.42225">
        <ele>1782.42</ele>
        <time>2019-03-02T14:59:01Z</time>
      </trkpt>
      <trkpt lat="46.04223" lon="6.42225">
        <ele>1780.98</ele>
        <time>2019-03-02T14:59:02Z</time>
      </trkpt>
      <trkpt lat="46.04223" lon="6.42225">
        <ele>1780.02</ele>
        <time>2019-03-02T14:59:04Z</time>
      </trkpt>
      <trkpt lat="46.04221" lon="6.42227">
        <ele>1779.54</ele>
        <time>2019-03-02T14:59:21Z</time>
      </trkpt>
      <trkpt lat="46.0422" lon="6.4223">
        <ele>1779.54</ele>
        <time>2019-03-02T14:59:22Z</time>
      </trkpt>
      <trkpt lat="46.04218" lon="6.42234">
        <ele>1779.06</ele>
        <time>2019-03-02T14:59:23Z</time>
      </trkpt>
      <trkpt lat="46.04214" lon="6.42237">
        <ele>1777.61</ele>
        <time>2019-03-02T14:59:24Z</time>
      </trkpt>
      <trkpt lat="46.04211" lon="6.4224">
        <ele>1776.17</ele>
        <time>2019-03-02T14:59:25Z</time>
      </trkpt>
      <trkpt lat="46.04209" lon="6.42243">
        <ele>1775.21</ele>
        <time>2019-03-02T14:59:26Z</time>
      </trkpt>
      <trkpt lat="46.04209" lon="6.42245">
        <ele>1773.29</ele>
        <time>2019-03-02T14:59:40Z</time>
      </trkpt>
      <trkpt lat="46.0421" lon="6.42246">
        <ele>1772.81</ele>
        <time>2019-03-02T14:59:41Z</time>
      </trkpt>
      <trkpt lat="46.04213" lon="6.42275">
        <ele>1768</ele>
        <time>2019-03-02T14:59:49Z</time>
      </trkpt>
      <trkpt lat="46.04215" lon="6.42289">
        <ele>1763.2</ele>
        <time>2019-03-02T14:59:52Z</time>
      </trkpt>
      <trkpt lat="46.04216" lon="6.42298">
        <ele>1759.83</ele>
        <time>2019-03-02T14:59:54Z</time>
      </trkpt>
      <trkpt lat="46.04215" lon="6.42303">
        <ele>1758.39</ele>
        <time>2019-03-02T14:59:55Z</time>
      </trkpt>
      <trkpt lat="46.04213" lon="6.42315">
        <ele>1755.02</ele>
        <time>2019-03-02T14:59:57Z</time>
      </trkpt>
      <trkpt lat="46.04214" lon="6.4232">
        <ele>1752.62</ele>
        <time>2019-03-02T14:59:58Z</time>
      </trkpt>
      <trkpt lat="46.04215" lon="6.42323">
        <ele>1751.18</ele>
        <time>2019-03-02T14:59:59Z</time>
      </trkpt>
      <trkpt lat="46.04214" lon="6.42324">
        <ele>1748.78</ele>
        <time>2019-03-02T15:00:02Z</time>
      </trkpt>
      <trkpt lat="46.04212" lon="6.42325">
        <ele>1748.78</ele>
        <time>2019-03-02T15:00:48Z</time>
      </trkpt>
      <trkpt lat="46.0421" lon="6.42328">
        <ele>1748.78</ele>
        <time>2019-03-02T15:00:49Z</time>
      </trkpt>
      <trkpt lat="46.04208" lon="6.42341">
        <ele>1746.37</ele>
        <time>2019-03-02T15:00:51Z</time>
      </trkpt>
      <trkpt lat="46.0421" lon="6.42357">
        <ele>1742.05</ele>
        <time>2019-03-02T15:00:53Z</time>
      </trkpt>
      <trkpt lat="46.04212" lon="6.42365">
        <ele>1739.64</ele>
        <time>2019-03-02T15:00:54Z</time>
      </trkpt>
      <trkpt lat="46.04211" lon="6.42373">
        <ele>1737.24</ele>
        <time>2019-03-02T15:00:55Z</time>
      </trkpt>
      <trkpt lat="46.04207" lon="6.42381">
        <ele>1735.32</ele>
        <time>2019-03-02T15:00:56Z</time>
      </trkpt>
      <trkpt lat="46.04202" lon="6.42388">
        <ele>1733.39</ele>
        <time>2019-03-02T15:00:57Z</time>
      </trkpt>
      <trkpt lat="46.04198" lon="6.42394">
        <ele>1731.95</ele>
        <time>2019-03-02T15:00:58Z</time>
      </trkpt>
      <trkpt lat="46.04193" lon="6.42397">
        <ele>1730.99</ele>
        <time>2019-03-02T15:00:59Z</time>
      </trkpt>
      <trkpt lat="46.04191" lon="6.42397">
        <ele>1729.07</ele>
        <time>2019-03-02T15:01:00Z</time>
      </trkpt>
      <trkpt lat="46.0419" lon="6.42396">
        <ele>1728.11</ele>
        <time>2019-03-02T15:01:01Z</time>
      </trkpt>
      <trkpt lat="46.0419" lon="6.42395">
        <ele>1727.63</ele>
        <time>2019-03-02T15:01:03Z</time>
      </trkpt>
      <trkpt lat="46.04185" lon="6.42396">
        <ele>1727.63</ele>
        <time>2019-03-02T15:01:18Z</time>
      </trkpt>
      <trkpt lat="46.04183" lon="6.42396">
        <ele>1727.63</ele>
        <time>2019-03-02T15:01:19Z</time>
      </trkpt>
      <trkpt lat="46.04181" lon="6.42396">
        <ele>1727.15</ele>
        <time>2019-03-02T15:01:20Z</time>
      </trkpt>
      <trkpt lat="46.04177" lon="6.42396">
        <ele>1725.7</ele>
        <time>2019-03-02T15:01:25Z</time>
      </trkpt>
      <trkpt lat="46.04175" lon="6.42396">
        <ele>1725.22</ele>
        <time>2019-03-02T15:01:26Z</time>
      </trkpt>
      <trkpt lat="46.04171" lon="6.42397">
        <ele>1724.26</ele>
        <time>2019-03-02T15:01:27Z</time>
      </trkpt>
      <trkpt lat="46.04168" lon="6.424">
        <ele>1723.3</ele>
        <time>2019-03-02T15:01:28Z</time>
      </trkpt>
      <trkpt lat="46.04166" lon="6.42406">
        <ele>1721.86</ele>
        <time>2019-03-02T15:01:29Z</time>
      </trkpt>
      <trkpt lat="46.04165" lon="6.42408">
        <ele>1720.42</ele>
        <time>2019-03-02T15:01:30Z</time>
      </trkpt>
      <trkpt lat="46.04163" lon="6.42406">
        <ele>1718.49</ele>
        <time>2019-03-02T15:01:35Z</time>
      </trkpt>
      <trkpt lat="46.0416" lon="6.42399">
        <ele>1718.97</ele>
        <time>2019-03-02T15:01:42Z</time>
      </trkpt>
      <trkpt lat="46.04156" lon="6.42397">
        <ele>1718.49</ele>
        <time>2019-03-02T15:01:43Z</time>
      </trkpt>
      <trkpt lat="46.04146" lon="6.42391">
        <ele>1715.61</ele>
        <time>2019-03-02T15:01:45Z</time>
      </trkpt>
      <trkpt lat="46.04141" lon="6.42393">
        <ele>1714.65</ele>
        <time>2019-03-02T15:01:46Z</time>
      </trkpt>
      <trkpt lat="46.04138" lon="6.42393">
        <ele>1712.73</ele>
        <time>2019-03-02T15:01:47Z</time>
      </trkpt>
      <trkpt lat="46.04137" lon="6.42392">
        <ele>1710.32</ele>
        <time>2019-03-02T15:01:50Z</time>
      </trkpt>
      <trkpt lat="46.04129" lon="6.42389">
        <ele>1708.4</ele>
        <time>2019-03-02T15:02:20Z</time>
      </trkpt>
      <trkpt lat="46.04126" lon="6.42391">
        <ele>1707.44</ele>
        <time>2019-03-02T15:02:21Z</time>
      </trkpt>
      <trkpt lat="46.04112" lon="6.42404">
        <ele>1703.11</ele>
        <time>2019-03-02T15:02:24Z</time>
      </trkpt>
      <trkpt lat="46.04108" lon="6.42409">
        <ele>1700.71</ele>
        <time>2019-03-02T15:02:25Z</time>
      </trkpt>
      <trkpt lat="46.04104" lon="6.42414">
        <ele>1698.79</ele>
        <time>2019-03-02T15:02:26Z</time>
      </trkpt>
      <trkpt lat="46.04101" lon="6.42421">
        <ele>1696.86</ele>
        <time>2019-03-02T15:02:27Z</time>
      </trkpt>
      <trkpt lat="46.04099" lon="6.42428">
        <ele>1694.94</ele>
        <time>2019-03-02T15:02:28Z</time>
      </trkpt>
      <trkpt lat="46.04097" lon="6.42435">
        <ele>1693.02</ele>
        <time>2019-03-02T15:02:29Z</time>
      </trkpt>
      <trkpt lat="46.04095" lon="6.42438">
        <ele>1691.1</ele>
        <time>2019-03-02T15:02:30Z</time>
      </trkpt>
      <trkpt lat="46.04091" lon="6.42437">
        <ele>1689.17</ele>
        <time>2019-03-02T15:02:31Z</time>
      </trkpt>
      <trkpt lat="46.04088" lon="6.42437">
        <ele>1688.69</ele>
        <time>2019-03-02T15:02:32Z</time>
      </trkpt>
      <trkpt lat="46.04086" lon="6.42438">
        <ele>1688.21</ele>
        <time>2019-03-02T15:02:33Z</time>
      </trkpt>
      <trkpt lat="46.04083" lon="6.42441">
        <ele>1687.25</ele>
        <time>2019-03-02T15:02:34Z</time>
      </trkpt>
      <trkpt lat="46.04081" lon="6.42447">
        <ele>1685.81</ele>
        <time>2019-03-02T15:02:35Z</time>
      </trkpt>
      <trkpt lat="46.04078" lon="6.42452">
        <ele>1684.37</ele>
        <time>2019-03-02T15:02:36Z</time>
      </trkpt>
      <trkpt lat="46.04075" lon="6.42459">
        <ele>1682.93</ele>
        <time>2019-03-02T15:02:37Z</time>
      </trkpt>
      <trkpt lat="46.04072" lon="6.42468">
        <ele>1681.48</ele>
        <time>2019-03-02T15:02:38Z</time>
      </trkpt>
      <trkpt lat="46.0407" lon="6.42476">
        <ele>1679.08</ele>
        <time>2019-03-02T15:02:39Z</time>
      </trkpt>
      <trkpt lat="46.04071" lon="6.42481">
        <ele>1677.16</ele>
        <time>2019-03-02T15:02:40Z</time>
      </trkpt>
      <trkpt lat="46.04071" lon="6.42481">
        <ele>1673.79</ele>
        <time>2019-03-02T15:02:42Z</time>
      </trkpt>
      <trkpt lat="46.04069" lon="6.42481">
        <ele>1672.83</ele>
        <time>2019-03-02T15:03:43Z</time>
      </trkpt>
      <trkpt lat="46.04068" lon="6.42483">
        <ele>1672.35</ele>
        <time>2019-03-02T15:03:44Z</time>
      </trkpt>
      <trkpt lat="46.04056" lon="6.42497">
        <ele>1669.47</ele>
        <time>2019-03-02T15:03:47Z</time>
      </trkpt>
      <trkpt lat="46.04052" lon="6.42504">
        <ele>1667.06</ele>
        <time>2019-03-02T15:03:48Z</time>
      </trkpt>
      <trkpt lat="46.04047" lon="6.42509">
        <ele>1665.62</ele>
        <time>2019-03-02T15:03:49Z</time>
      </trkpt>
      <trkpt lat="46.04041" lon="6.42515">
        <ele>1663.22</ele>
        <time>2019-03-02T15:03:50Z</time>
      </trkpt>
      <trkpt lat="46.04037" lon="6.42524">
        <ele>1660.81</ele>
        <time>2019-03-02T15:03:51Z</time>
      </trkpt>
      <trkpt lat="46.04032" lon="6.42534">
        <ele>1658.41</ele>
        <time>2019-03-02T15:03:52Z</time>
      </trkpt>
      <trkpt lat="46.04028" lon="6.42546">
        <ele>1655.05</ele>
        <time>2019-03-02T15:03:53Z</time>
      </trkpt>
      <trkpt lat="46.04023" lon="6.42558">
        <ele>1652.16</ele>
        <time>2019-03-02T15:03:54Z</time>
      </trkpt>
      <trkpt lat="46.04018" lon="6.4257">
        <ele>1649.28</ele>
        <time>2019-03-02T15:03:55Z</time>
      </trkpt>
      <trkpt lat="46.04013" lon="6.42583">
        <ele>1645.43</ele>
        <time>2019-03-02T15:03:56Z</time>
      </trkpt>
      <trkpt lat="46.04006" lon="6.42595">
        <ele>1641.59</ele>
        <time>2019-03-02T15:03:57Z</time>
      </trkpt>
      <trkpt lat="46.04" lon="6.42608">
        <ele>1638.22</ele>
        <time>2019-03-02T15:03:58Z</time>
      </trkpt>
      <trkpt lat="46.03995" lon="6.42619">
        <ele>1634.86</ele>
        <time>2019-03-02T15:03:59Z</time>
      </trkpt>
      <trkpt lat="46.03989" lon="6.42624">
        <ele>1631.98</ele>
        <time>2019-03-02T15:04:00Z</time>
      </trkpt>
      <trkpt lat="46.03985" lon="6.42626">
        <ele>1630.05</ele>
        <time>2019-03-02T15:04:01Z</time>
      </trkpt>
      <trkpt lat="46.03984" lon="6.42627">
        <ele>1629.09</ele>
        <time>2019-03-02T15:04:02Z</time>
      </trkpt>
      <trkpt lat="46.03981" lon="6.42628">
        <ele>1628.61</ele>
        <time>2019-03-02T15:04:03Z</time>
      </trkpt>
      <trkpt lat="46.03979" lon="6.42627">
        <ele>1628.13</ele>
        <time>2019-03-02T15:04:04Z</time>
      </trkpt>
      <trkpt lat="46.03977" lon="6.42627">
        <ele>1627.65</ele>
        <time>2019-03-02T15:04:05Z</time>
      </trkpt>
      <trkpt lat="46.03976" lon="6.42627">
        <ele>1627.65</ele>
        <time>2019-03-02T15:04:06Z</time>
      </trkpt>
      <trkpt lat="46.03975" lon="6.42627">
        <ele>1627.17</ele>
        <time>2019-03-02T15:04:07Z</time>
      </trkpt>
      <trkpt lat="46.03972" lon="6.42625">
        <ele>1626.69</ele>
        <time>2019-03-02T15:05:11Z</time>
      </trkpt>
      <trkpt lat="46.0397" lon="6.42626">
        <ele>1626.21</ele>
        <time>2019-03-02T15:05:12Z</time>
      </trkpt>
      <trkpt lat="46.03967" lon="6.42627">
        <ele>1626.21</ele>
        <time>2019-03-02T15:05:13Z</time>
      </trkpt>
      <trkpt lat="46.03957" lon="6.42627">
        <ele>1624.77</ele>
        <time>2019-03-02T15:05:15Z</time>
      </trkpt>
      <trkpt lat="46.03937" lon="6.42623">
        <ele>1622.36</ele>
        <time>2019-03-02T15:05:19Z</time>
      </trkpt>
      <trkpt lat="46.03932" lon="6.42623">
        <ele>1621.4</ele>
        <time>2019-03-02T15:05:20Z</time>
      </trkpt>
      <trkpt lat="46.03926" lon="6.42623">
        <ele>1620.44</ele>
        <time>2019-03-02T15:05:21Z</time>
      </trkpt>
      <trkpt lat="46.03919" lon="6.42625">
        <ele>1619</ele>
        <time>2019-03-02T15:05:22Z</time>
      </trkpt>
      <trkpt lat="46.03912" lon="6.42629">
        <ele>1618.04</ele>
        <time>2019-03-02T15:05:23Z</time>
      </trkpt>
      <trkpt lat="46.03905" lon="6.42635">
        <ele>1615.63</ele>
        <time>2019-03-02T15:05:24Z</time>
      </trkpt>
      <trkpt lat="46.03899" lon="6.42638">
        <ele>1612.27</ele>
        <time>2019-03-02T15:05:25Z</time>
      </trkpt>
      <trkpt lat="46.03893" lon="6.42639">
        <ele>1610.35</ele>
        <time>2019-03-02T15:05:26Z</time>
      </trkpt>
      <trkpt lat="46.03888" lon="6.42641">
        <ele>1607.94</ele>
        <time>2019-03-02T15:05:27Z</time>
      </trkpt>
      <trkpt lat="46.03882" lon="6.42644">
        <ele>1606.02</ele>
        <time>2019-03-02T15:05:28Z</time>
      </trkpt>
      <trkpt lat="46.03877" lon="6.4265">
        <ele>1603.62</ele>
        <time>2019-03-02T15:05:29Z</time>
      </trkpt>
      <trkpt lat="46.0387" lon="6.42654">
        <ele>1601.69</ele>
        <time>2019-03-02T15:05:30Z</time>
      </trkpt>
      <trkpt lat="46.03864" lon="6.42657">
        <ele>1597.85</ele>
        <time>2019-03-02T15:05:31Z</time>
      </trkpt>
      <trkpt lat="46.0386" lon="6.4266">
        <ele>1595.45</ele>
        <time>2019-03-02T15:05:32Z</time>
      </trkpt>
      <trkpt lat="46.03858" lon="6.42662">
        <ele>1593.04</ele>
        <time>2019-03-02T15:05:33Z</time>
      </trkpt>
      <trkpt lat="46.03858" lon="6.42664">
        <ele>1589.68</ele>
        <time>2019-03-02T15:05:36Z</time>
      </trkpt>
      <trkpt lat="46.03858" lon="6.42665">
        <ele>1589.68</ele>
        <time>2019-03-02T15:05:37Z</time>
      </trkpt>
      <trkpt lat="46.0386" lon="6.42665">
        <ele>1589.68</ele>
        <time>2019-03-02T15:06:29Z</time>
      </trkpt>
      <trkpt lat="46.03858" lon="6.42667">
        <ele>1589.2</ele>
        <time>2019-03-02T15:06:30Z</time>
      </trkpt>
      <trkpt lat="46.03855" lon="6.42671">
        <ele>1588.72</ele>
        <time>2019-03-02T15:06:31Z</time>
      </trkpt>
      <trkpt lat="46.0385" lon="6.42676">
        <ele>1588.24</ele>
        <time>2019-03-02T15:06:32Z</time>
      </trkpt>
      <trkpt lat="46.03844" lon="6.42681">
        <ele>1585.35</ele>
        <time>2019-03-02T15:06:33Z</time>
      </trkpt>
      <trkpt lat="46.03837" lon="6.42684">
        <ele>1581.99</ele>
        <time>2019-03-02T15:06:34Z</time>
      </trkpt>
      <trkpt lat="46.03831" lon="6.42685">
        <ele>1579.58</ele>
        <time>2019-03-02T15:06:35Z</time>
      </trkpt>
      <trkpt lat="46.03827" lon="6.42691">
        <ele>1578.62</ele>
        <time>2019-03-02T15:06:36Z</time>
      </trkpt>
      <trkpt lat="46.0382" lon="6.42696">
        <ele>1576.22</ele>
        <time>2019-03-02T15:06:37Z</time>
      </trkpt>
      <trkpt lat="46.03814" lon="6.42702">
        <ele>1573.33</ele>
        <time>2019-03-02T15:06:38Z</time>
      </trkpt>
      <trkpt lat="46.03812" lon="6.42706">
        <ele>1570.45</ele>
        <time>2019-03-02T15:06:39Z</time>
      </trkpt>
      <trkpt lat="46.03813" lon="6.42709">
        <ele>1567.09</ele>
        <time>2019-03-02T15:06:40Z</time>
      </trkpt>
      <trkpt lat="46.03814" lon="6.42709">
        <ele>1563.72</ele>
        <time>2019-03-02T15:06:42Z</time>
      </trkpt>
      <trkpt lat="46.03813" lon="6.42709">
        <ele>1562.76</ele>
        <time>2019-03-02T15:06:44Z</time>
      </trkpt>
      <trkpt lat="46.0381" lon="6.42709">
        <ele>1562.76</ele>
        <time>2019-03-02T15:08:00Z</time>
      </trkpt>
      <trkpt lat="46.03809" lon="6.42709">
        <ele>1562.76</ele>
        <time>2019-03-02T15:08:01Z</time>
      </trkpt>
      <trkpt lat="46.03807" lon="6.42709">
        <ele>1562.76</ele>
        <time>2019-03-02T15:08:02Z</time>
      </trkpt>
      <trkpt lat="46.03799" lon="6.42709">
        <ele>1561.8</ele>
        <time>2019-03-02T15:08:04Z</time>
      </trkpt>
      <trkpt lat="46.03794" lon="6.42709">
        <ele>1561.32</ele>
        <time>2019-03-02T15:08:05Z</time>
      </trkpt>
      <trkpt lat="46.03788" lon="6.42711">
        <ele>1560.36</ele>
        <time>2019-03-02T15:08:06Z</time>
      </trkpt>
      <trkpt lat="46.03776" lon="6.42716">
        <ele>1556.99</ele>
        <time>2019-03-02T15:08:08Z</time>
      </trkpt>
      <trkpt lat="46.0377" lon="6.42719">
        <ele>1555.55</ele>
        <time>2019-03-02T15:08:09Z</time>
      </trkpt>
      <trkpt lat="46.03764" lon="6.42726">
        <ele>1554.11</ele>
        <time>2019-03-02T15:08:10Z</time>
      </trkpt>
      <trkpt lat="46.03761" lon="6.42737">
        <ele>1552.67</ele>
        <time>2019-03-02T15:08:11Z</time>
      </trkpt>
      <trkpt lat="46.03758" lon="6.4275">
        <ele>1550.74</ele>
        <time>2019-03-02T15:08:12Z</time>
      </trkpt>
      <trkpt lat="46.03754" lon="6.42762">
        <ele>1547.38</ele>
        <time>2019-03-02T15:08:13Z</time>
      </trkpt>
      <trkpt lat="46.0375" lon="6.42775">
        <ele>1544.5</ele>
        <time>2019-03-02T15:08:14Z</time>
      </trkpt>
      <trkpt lat="46.03745" lon="6.42788">
        <ele>1541.61</ele>
        <time>2019-03-02T15:08:15Z</time>
      </trkpt>
      <trkpt lat="46.03737" lon="6.428">
        <ele>1538.73</ele>
        <time>2019-03-02T15:08:16Z</time>
      </trkpt>
      <trkpt lat="46.0373" lon="6.42812">
        <ele>1535.36</ele>
        <time>2019-03-02T15:08:17Z</time>
      </trkpt>
      <trkpt lat="46.03725" lon="6.42827">
        <ele>1533.44</ele>
        <time>2019-03-02T15:08:18Z</time>
      </trkpt>
      <trkpt lat="46.03719" lon="6.42841">
        <ele>1527.67</ele>
        <time>2019-03-02T15:08:19Z</time>
      </trkpt>
      <trkpt lat="46.03714" lon="6.42856">
        <ele>1524.79</ele>
        <time>2019-03-02T15:08:20Z</time>
      </trkpt>
      <trkpt lat="46.0371" lon="6.42872">
        <ele>1522.39</ele>
        <time>2019-03-02T15:08:21Z</time>
      </trkpt>
      <trkpt lat="46.03706" lon="6.42888">
        <ele>1518.54</ele>
        <time>2019-03-02T15:08:22Z</time>
      </trkpt>
      <trkpt lat="46.03702" lon="6.42903">
        <ele>1514.69</ele>
        <time>2019-03-02T15:08:23Z</time>
      </trkpt>
      <trkpt lat="46.03698" lon="6.42918">
        <ele>1510.85</ele>
        <time>2019-03-02T15:08:24Z</time>
      </trkpt>
      <trkpt lat="46.03694" lon="6.4294">
        <ele>1508.45</ele>
        <time>2019-03-02T15:08:26Z</time>
      </trkpt>
      <trkpt lat="46.03695" lon="6.42943">
        <ele>1507.48</ele>
        <time>2019-03-02T15:08:27Z</time>
      </trkpt>
      <trkpt lat="46.037" lon="6.42935">
        <ele>1505.08</ele>
        <time>2019-03-02T15:10:37Z</time>
      </trkpt>
      <trkpt lat="46.03701" lon="6.42938">
        <ele>1505.08</ele>
        <time>2019-03-02T15:10:38Z</time>
      </trkpt>
      <trkpt lat="46.03701" lon="6.42943">
        <ele>1504.12</ele>
        <time>2019-03-02T15:10:39Z</time>
      </trkpt>
      <trkpt lat="46.03702" lon="6.42948">
        <ele>1503.16</ele>
        <time>2019-03-02T15:10:40Z</time>
      </trkpt>
      <trkpt lat="46.03703" lon="6.42954">
        <ele>1502.68</ele>
        <time>2019-03-02T15:10:41Z</time>
      </trkpt>
      <trkpt lat="46.03705" lon="6.42962">
        <ele>1501.24</ele>
        <time>2019-03-02T15:10:42Z</time>
      </trkpt>
      <trkpt lat="46.0371" lon="6.42972">
        <ele>1499.31</ele>
        <time>2019-03-02T15:10:43Z</time>
      </trkpt>
      <trkpt lat="46.03715" lon="6.42982">
        <ele>1496.43</ele>
        <time>2019-03-02T15:10:44Z</time>
      </trkpt>
      <trkpt lat="46.03722" lon="6.42992">
        <ele>1493.06</ele>
        <time>2019-03-02T15:10:45Z</time>
      </trkpt>
      <trkpt lat="46.03729" lon="6.43002">
        <ele>1489.22</ele>
        <time>2019-03-02T15:10:46Z</time>
      </trkpt>
      <trkpt lat="46.03735" lon="6.43014">
        <ele>1486.34</ele>
        <time>2019-03-02T15:10:47Z</time>
      </trkpt>
      <trkpt lat="46.0374" lon="6.43028">
        <ele>1481.05</ele>
        <time>2019-03-02T15:10:48Z</time>
      </trkpt>
      <trkpt lat="46.03746" lon="6.43044">
        <ele>1475.76</ele>
        <time>2019-03-02T15:10:49Z</time>
      </trkpt>
      <trkpt lat="46.03751" lon="6.4306">
        <ele>1471.92</ele>
        <time>2019-03-02T15:10:50Z</time>
      </trkpt>
      <trkpt lat="46.03757" lon="6.43078">
        <ele>1467.59</ele>
        <time>2019-03-02T15:10:51Z</time>
      </trkpt>
      <trkpt lat="46.03764" lon="6.43093">
        <ele>1463.26</ele>
        <time>2019-03-02T15:10:52Z</time>
      </trkpt>
      <trkpt lat="46.03771" lon="6.4311">
        <ele>1459.42</ele>
        <time>2019-03-02T15:10:53Z</time>
      </trkpt>
      <trkpt lat="46.03776" lon="6.43127">
        <ele>1454.61</ele>
        <time>2019-03-02T15:10:54Z</time>
      </trkpt>
      <trkpt lat="46.03781" lon="6.43143">
        <ele>1451.25</ele>
        <time>2019-03-02T15:10:55Z</time>
      </trkpt>
      <trkpt lat="46.0379" lon="6.43157">
        <ele>1448.84</ele>
        <time>2019-03-02T15:10:56Z</time>
      </trkpt>
      <trkpt lat="46.03799" lon="6.43172">
        <ele>1446.44</ele>
        <time>2019-03-02T15:10:57Z</time>
      </trkpt>
      <trkpt lat="46.03805" lon="6.43189">
        <ele>1440.19</ele>
        <time>2019-03-02T15:10:58Z</time>
      </trkpt>
      <trkpt lat="46.03811" lon="6.43204">
        <ele>1435.87</ele>
        <time>2019-03-02T15:10:59Z</time>
      </trkpt>
      <trkpt lat="46.03817" lon="6.43219">
        <ele>1432.5</ele>
        <time>2019-03-02T15:11:00Z</time>
      </trkpt>
      <trkpt lat="46.03817" lon="6.43233">
        <ele>1428.66</ele>
        <time>2019-03-02T15:11:01Z</time>
      </trkpt>
      <trkpt lat="46.03815" lon="6.43241">
        <ele>1426.25</ele>
        <time>2019-03-02T15:11:02Z</time>
      </trkpt>
      <trkpt lat="46.03812" lon="6.43246">
        <ele>1425.29</ele>
        <time>2019-03-02T15:11:03Z</time>
      </trkpt>
      <trkpt lat="46.03811" lon="6.43248">
        <ele>1425.29</ele>
        <time>2019-03-02T15:11:04Z</time>
      </trkpt>
      <trkpt lat="46.03809" lon="6.43249">
        <ele>1425.77</ele>
        <time>2019-03-02T15:11:05Z</time>
      </trkpt>
      <trkpt lat="46.03805" lon="6.43242">
        <ele>1426.25</ele>
        <time>2019-03-02T15:12:28Z</time>
      </trkpt>
      <trkpt lat="46.03804" lon="6.4324">
        <ele>1426.25</ele>
        <time>2019-03-02T15:13:00Z</time>
      </trkpt>
      <trkpt lat="46.03805" lon="6.43242">
        <ele>1426.25</ele>
        <time>2019-03-02T15:13:26Z</time>
      </trkpt>
      <trkpt lat="46.03804" lon="6.4324">
        <ele>1426.25</ele>
        <time>2019-03-02T15:13:43Z</time>
      </trkpt>
      <trkpt lat="46.03805" lon="6.4324">
        <ele>1425.77</ele>
        <time>2019-03-02T15:14:01Z</time>
      </trkpt>
      <trkpt lat="46.03806" lon="6.43242">
        <ele>1425.77</ele>
        <time>2019-03-02T15:14:27Z</time>
      </trkpt>
      <trkpt lat="46.03807" lon="6.43244">
        <ele>1425.29</ele>
        <time>2019-03-02T15:14:28Z</time>
      </trkpt>
      <trkpt lat="46.03811" lon="6.43245">
        <ele>1424.33</ele>
        <time>2019-03-02T15:14:29Z</time>
      </trkpt>
      <trkpt lat="46.03818" lon="6.43244">
        <ele>1421.45</ele>
        <time>2019-03-02T15:14:30Z</time>
      </trkpt>
      <trkpt lat="46.03827" lon="6.43242">
        <ele>1418.08</ele>
        <time>2019-03-02T15:14:31Z</time>
      </trkpt>
      <trkpt lat="46.03835" lon="6.43238">
        <ele>1415.2</ele>
        <time>2019-03-02T15:14:32Z</time>
      </trkpt>
      <trkpt lat="46.03843" lon="6.43233">
        <ele>1412.79</ele>
        <time>2019-03-02T15:14:33Z</time>
      </trkpt>
      <trkpt lat="46.03851" lon="6.43228">
        <ele>1411.35</ele>
        <time>2019-03-02T15:14:34Z</time>
      </trkpt>
      <trkpt lat="46.03866" lon="6.43216">
        <ele>1411.35</ele>
        <time>2019-03-02T15:14:37Z</time>
      </trkpt>
      <trkpt lat="46.03869" lon="6.43213">
        <ele>1411.83</ele>
        <time>2019-03-02T15:14:38Z</time>
      </trkpt>
      <trkpt lat="46.03871" lon="6.43211">
        <ele>1412.31</ele>
        <time>2019-03-02T15:14:39Z</time>
      </trkpt>
      <trkpt lat="46.03872" lon="6.43209">
        <ele>1412.79</ele>
        <time>2019-03-02T15:14:40Z</time>
      </trkpt>
      <trkpt lat="46.03873" lon="6.43208">
        <ele>1412.79</ele>
        <time>2019-03-02T15:14:41Z</time>
      </trkpt>
      <trkpt lat="46.03874" lon="6.43208">
        <ele>1412.79</ele>
        <time>2019-03-02T15:14:42Z</time>
      </trkpt>
      <trkpt lat="46.03875" lon="6.43207">
        <ele>1412.79</ele>
        <time>2019-03-02T15:14:43Z</time>
      </trkpt>
      <trkpt lat="46.03879" lon="6.43209">
        <ele>1412.31</ele>
        <time>2019-03-02T15:14:49Z</time>
      </trkpt>
      <trkpt lat="46.03879" lon="6.43211">
        <ele>1411.83</ele>
        <time>2019-03-02T15:14:50Z</time>
      </trkpt>
      <trkpt lat="46.03878" lon="6.43214">
        <ele>1410.87</ele>
        <time>2019-03-02T15:14:51Z</time>
      </trkpt>
      <trkpt lat="46.03878" lon="6.43214">
        <ele>1409.91</ele>
        <time>2019-03-02T15:14:53Z</time>
      </trkpt>
      <trkpt lat="46.03879" lon="6.43216">
        <ele>1409.91</ele>
        <time>2019-03-02T15:15:01Z</time>
      </trkpt>
      <trkpt lat="46.03879" lon="6.4322">
        <ele>1409.91</ele>
        <time>2019-03-02T15:15:02Z</time>
      </trkpt>
      <trkpt lat="46.03881" lon="6.43228">
        <ele>1408.95</ele>
        <time>2019-03-02T15:15:03Z</time>
      </trkpt>
      <trkpt lat="46.03889" lon="6.43246">
        <ele>1405.1</ele>
        <time>2019-03-02T15:15:05Z</time>
      </trkpt>
      <trkpt lat="46.03896" lon="6.43252">
        <ele>1403.18</ele>
        <time>2019-03-02T15:15:06Z</time>
      </trkpt>
      <trkpt lat="46.03903" lon="6.43257">
        <ele>1399.82</ele>
        <time>2019-03-02T15:15:07Z</time>
      </trkpt>
      <trkpt lat="46.0391" lon="6.4326">
        <ele>1397.41</ele>
        <time>2019-03-02T15:15:08Z</time>
      </trkpt>
      <trkpt lat="46.03918" lon="6.43262">
        <ele>1393.57</ele>
        <time>2019-03-02T15:15:09Z</time>
      </trkpt>
      <trkpt lat="46.03926" lon="6.43262">
        <ele>1390.2</ele>
        <time>2019-03-02T15:15:10Z</time>
      </trkpt>
      <trkpt lat="46.03932" lon="6.43266">
        <ele>1386.84</ele>
        <time>2019-03-02T15:15:11Z</time>
      </trkpt>
      <trkpt lat="46.03937" lon="6.43271">
        <ele>1383.47</ele>
        <time>2019-03-02T15:15:12Z</time>
      </trkpt>
      <trkpt lat="46.03942" lon="6.43277">
        <ele>1380.59</ele>
        <time>2019-03-02T15:15:13Z</time>
      </trkpt>
      <trkpt lat="46.03947" lon="6.43284">
        <ele>1377.71</ele>
        <time>2019-03-02T15:15:14Z</time>
      </trkpt>
      <trkpt lat="46.03954" lon="6.43291">
        <ele>1375.78</ele>
        <time>2019-03-02T15:15:15Z</time>
      </trkpt>
      <trkpt lat="46.03963" lon="6.43297">
        <ele>1372.42</ele>
        <time>2019-03-02T15:15:16Z</time>
      </trkpt>
      <trkpt lat="46.03971" lon="6.43303">
        <ele>1368.57</ele>
        <time>2019-03-02T15:15:17Z</time>
      </trkpt>
      <trkpt lat="46.03978" lon="6.43309">
        <ele>1365.21</ele>
        <time>2019-03-02T15:15:18Z</time>
      </trkpt>
      <trkpt lat="46.03988" lon="6.43312">
        <ele>1362.33</ele>
        <time>2019-03-02T15:15:19Z</time>
      </trkpt>
      <trkpt lat="46.03995" lon="6.43316">
        <ele>1359.92</ele>
        <time>2019-03-02T15:15:20Z</time>
      </trkpt>
      <trkpt lat="46.03998" lon="6.43325">
        <ele>1357.52</ele>
        <time>2019-03-02T15:15:21Z</time>
      </trkpt>
      <trkpt lat="46.04" lon="6.43335">
        <ele>1355.12</ele>
        <time>2019-03-02T15:15:22Z</time>
      </trkpt>
      <trkpt lat="46.04002" lon="6.4334">
        <ele>1353.19</ele>
        <time>2019-03-02T15:15:23Z</time>
      </trkpt>
      <trkpt lat="46.04007" lon="6.43343">
        <ele>1351.75</ele>
        <time>2019-03-02T15:15:24Z</time>
      </trkpt>
      <trkpt lat="46.04012" lon="6.43344">
        <ele>1348.87</ele>
        <time>2019-03-02T15:15:25Z</time>
      </trkpt>
      <trkpt lat="46.04015" lon="6.43341">
        <ele>1347.91</ele>
        <time>2019-03-02T15:15:26Z</time>
      </trkpt>
      <trkpt lat="46.04018" lon="6.4334">
        <ele>1347.43</ele>
        <time>2019-03-02T15:15:27Z</time>
      </trkpt>
      <trkpt lat="46.04016" lon="6.43332">
        <ele>1346.94</ele>
        <time>2019-03-02T15:15:57Z</time>
      </trkpt>
      <trkpt lat="46.04016" lon="6.43334">
        <ele>1346.94</ele>
        <time>2019-03-02T15:15:58Z</time>
      </trkpt>
      <trkpt lat="46.04014" lon="6.43335">
        <ele>1346.46</ele>
        <time>2019-03-02T15:15:59Z</time>
      </trkpt>
      <trkpt lat="46.04013" lon="6.43336">
        <ele>1346.46</ele>
        <time>2019-03-02T15:16:00Z</time>
      </trkpt>
      <trkpt lat="46.0401" lon="6.43339">
        <ele>1345.5</ele>
        <time>2019-03-02T15:17:36Z</time>
      </trkpt>
      <trkpt lat="46.04009" lon="6.43341">
        <ele>1345.5</ele>
        <time>2019-03-02T15:17:37Z</time>
      </trkpt>
      <trkpt lat="46.04008" lon="6.43344">
        <ele>1345.02</ele>
        <time>2019-03-02T15:17:38Z</time>
      </trkpt>
      <trkpt lat="46.04009" lon="6.4335">
        <ele>1344.06</ele>
        <time>2019-03-02T15:17:39Z</time>
      </trkpt>
      <trkpt lat="46.04009" lon="6.43357">
        <ele>1343.1</ele>
        <time>2019-03-02T15:17:40Z</time>
      </trkpt>
      <trkpt lat="46.0401" lon="6.43364">
        <ele>1342.14</ele>
        <time>2019-03-02T15:17:41Z</time>
      </trkpt>
      <trkpt lat="46.04013" lon="6.4337">
        <ele>1340.22</ele>
        <time>2019-03-02T15:17:42Z</time>
      </trkpt>
      <trkpt lat="46.04017" lon="6.43376">
        <ele>1338.29</ele>
        <time>2019-03-02T15:17:43Z</time>
      </trkpt>
      <trkpt lat="46.0402" lon="6.43383">
        <ele>1336.37</ele>
        <time>2019-03-02T15:17:44Z</time>
      </trkpt>
      <trkpt lat="46.04022" lon="6.4339">
        <ele>1333.97</ele>
        <time>2019-03-02T15:17:45Z</time>
      </trkpt>
      <trkpt lat="46.04024" lon="6.43398">
        <ele>1331.56</ele>
        <time>2019-03-02T15:17:46Z</time>
      </trkpt>
      <trkpt lat="46.04028" lon="6.43403">
        <ele>1329.64</ele>
        <time>2019-03-02T15:17:47Z</time>
      </trkpt>
      <trkpt lat="46.04031" lon="6.43408">
        <ele>1327.72</ele>
        <time>2019-03-02T15:17:48Z</time>
      </trkpt>
      <trkpt lat="46.04033" lon="6.43414">
        <ele>1326.28</ele>
        <time>2019-03-02T15:17:49Z</time>
      </trkpt>
      <trkpt lat="46.04035" lon="6.43419">
        <ele>1323.87</ele>
        <time>2019-03-02T15:17:50Z</time>
      </trkpt>
      <trkpt lat="46.04038" lon="6.43424">
        <ele>1321.95</ele>
        <time>2019-03-02T15:17:51Z</time>
      </trkpt>
      <trkpt lat="46.04043" lon="6.43428">
        <ele>1320.03</ele>
        <time>2019-03-02T15:17:52Z</time>
      </trkpt>
      <trkpt lat="46.04047" lon="6.43432">
        <ele>1317.62</ele>
        <time>2019-03-02T15:17:53Z</time>
      </trkpt>
      <trkpt lat="46.04051" lon="6.43437">
        <ele>1316.18</ele>
        <time>2019-03-02T15:17:54Z</time>
      </trkpt>
      <trkpt lat="46.04055" lon="6.43443">
        <ele>1313.78</ele>
        <time>2019-03-02T15:17:55Z</time>
      </trkpt>
      <trkpt lat="46.04059" lon="6.43448">
        <ele>1311.86</ele>
        <time>2019-03-02T15:17:56Z</time>
      </trkpt>
      <trkpt lat="46.04064" lon="6.43448">
        <ele>1309.93</ele>
        <time>2019-03-02T15:17:57Z</time>
      </trkpt>
      <trkpt lat="46.04068" lon="6.43447">
        <ele>1308.49</ele>
        <time>2019-03-02T15:17:58Z</time>
      </trkpt>
      <trkpt lat="46.04074" lon="6.43449">
        <ele>1306.57</ele>
        <time>2019-03-02T15:18:01Z</time>
      </trkpt>
      <trkpt lat="46.04075" lon="6.4345">
        <ele>1305.61</ele>
        <time>2019-03-02T15:18:02Z</time>
      </trkpt>
      <trkpt lat="46.04075" lon="6.43451">
        <ele>1305.13</ele>
        <time>2019-03-02T15:18:04Z</time>
      </trkpt>
      <trkpt lat="46.04077" lon="6.43453">
        <ele>1304.65</ele>
        <time>2019-03-02T15:18:05Z</time>
      </trkpt>
      <trkpt lat="46.04078" lon="6.43455">
        <ele>1304.65</ele>
        <time>2019-03-02T15:18:06Z</time>
      </trkpt>
      <trkpt lat="46.0408" lon="6.43458">
        <ele>1303.69</ele>
        <time>2019-03-02T15:18:07Z</time>
      </trkpt>
      <trkpt lat="46.04081" lon="6.43462">
        <ele>1303.2</ele>
        <time>2019-03-02T15:18:08Z</time>
      </trkpt>
      <trkpt lat="46.04083" lon="6.43466">
        <ele>1301.76</ele>
        <time>2019-03-02T15:18:09Z</time>
      </trkpt>
      <trkpt lat="46.04084" lon="6.43469">
        <ele>1300.32</ele>
        <time>2019-03-02T15:18:10Z</time>
      </trkpt>
      <trkpt lat="46.04084" lon="6.43469">
        <ele>1297.44</ele>
        <time>2019-03-02T15:19:27Z</time>
      </trkpt>
      <trkpt lat="46.04083" lon="6.43468">
        <ele>1296.96</ele>
        <time>2019-03-02T15:20:39Z</time>
      </trkpt>
      <trkpt lat="46.04085" lon="6.43473">
        <ele>1296.96</ele>
        <time>2019-03-02T15:21:18Z</time>
      </trkpt>
      <trkpt lat="46.04086" lon="6.43475">
        <ele>1296.96</ele>
        <time>2019-03-02T15:21:19Z</time>
      </trkpt>
      <trkpt lat="46.04088" lon="6.43479">
        <ele>1295.51</ele>
        <time>2019-03-02T15:21:20Z</time>
      </trkpt>
      <trkpt lat="46.04089" lon="6.43484">
        <ele>1294.07</ele>
        <time>2019-03-02T15:21:21Z</time>
      </trkpt>
      <trkpt lat="46.04092" lon="6.43488">
        <ele>1292.63</ele>
        <time>2019-03-02T15:21:22Z</time>
      </trkpt>
      <trkpt lat="46.04095" lon="6.43493">
        <ele>1290.71</ele>
        <time>2019-03-02T15:21:23Z</time>
      </trkpt>
      <trkpt lat="46.04098" lon="6.43498">
        <ele>1288.3</ele>
        <time>2019-03-02T15:21:24Z</time>
      </trkpt>
      <trkpt lat="46.041" lon="6.43503">
        <ele>1286.38</ele>
        <time>2019-03-02T15:21:25Z</time>
      </trkpt>
      <trkpt lat="46.04104" lon="6.43508">
        <ele>1284.46</ele>
        <time>2019-03-02T15:21:26Z</time>
      </trkpt>
      <trkpt lat="46.04106" lon="6.43514">
        <ele>1281.57</ele>
        <time>2019-03-02T15:21:27Z</time>
      </trkpt>
      <trkpt lat="46.04109" lon="6.43528">
        <ele>1275.81</ele>
        <time>2019-03-02T15:21:29Z</time>
      </trkpt>
      <trkpt lat="46.0411" lon="6.43533">
        <ele>1273.88</ele>
        <time>2019-03-02T15:21:30Z</time>
      </trkpt>
      <trkpt lat="46.04112" lon="6.43538">
        <ele>1271.96</ele>
        <time>2019-03-02T15:21:31Z</time>
      </trkpt>
      <trkpt lat="46.04111" lon="6.43541">
        <ele>1270.52</ele>
        <time>2019-03-02T15:21:32Z</time>
      </trkpt>
      <trkpt lat="46.04111" lon="6.43541">
        <ele>1268.6</ele>
        <time>2019-03-02T15:21:35Z</time>
      </trkpt>
      <trkpt lat="46.04111" lon="6.43541">
        <ele>1268.6</ele>
        <time>2019-03-02T15:21:47Z</time>
      </trkpt>
      <trkpt lat="46.04111" lon="6.43545">
        <ele>1268.12</ele>
        <time>2019-03-02T15:21:48Z</time>
      </trkpt>
      <trkpt lat="46.04109" lon="6.43549">
        <ele>1267.64</ele>
        <time>2019-03-02T15:21:49Z</time>
      </trkpt>
      <trkpt lat="46.04106" lon="6.43559">
        <ele>1265.71</ele>
        <time>2019-03-02T15:21:51Z</time>
      </trkpt>
      <trkpt lat="46.04106" lon="6.43565">
        <ele>1264.27</ele>
        <time>2019-03-02T15:21:52Z</time>
      </trkpt>
      <trkpt lat="46.04106" lon="6.43569">
        <ele>1263.31</ele>
        <time>2019-03-02T15:21:53Z</time>
      </trkpt>
      <trkpt lat="46.04105" lon="6.43572">
        <ele>1262.35</ele>
        <time>2019-03-02T15:21:54Z</time>
      </trkpt>
      <trkpt lat="46.04104" lon="6.43574">
        <ele>1261.87</ele>
        <time>2019-03-02T15:21:55Z</time>
      </trkpt>
      <trkpt lat="46.04103" lon="6.43578">
        <ele>1261.39</ele>
        <time>2019-03-02T15:21:56Z</time>
      </trkpt>
      <trkpt lat="46.04103" lon="6.43583">
        <ele>1260.91</ele>
        <time>2019-03-02T15:21:57Z</time>
      </trkpt>
      <trkpt lat="46.04102" lon="6.43586">
        <ele>1260.43</ele>
        <time>2019-03-02T15:21:58Z</time>
      </trkpt>
      <trkpt lat="46.04102" lon="6.43589">
        <ele>1260.43</ele>
        <time>2019-03-02T15:21:59Z</time>
      </trkpt>
      <trkpt lat="46.04102" lon="6.4359">
        <ele>1259.94</ele>
        <time>2019-03-02T15:22:00Z</time>
      </trkpt>
      <trkpt lat="46.04101" lon="6.43592">
        <ele>1259.94</ele>
        <time>2019-03-02T15:22:01Z</time>
      </trkpt>
      <trkpt lat="46.04101" lon="6.43597">
        <ele>1258.98</ele>
        <time>2019-03-02T15:22:05Z</time>
      </trkpt>
      <trkpt lat="46.04102" lon="6.436">
        <ele>1258.5</ele>
        <time>2019-03-02T15:22:06Z</time>
      </trkpt>
      <trkpt lat="46.04103" lon="6.43602">
        <ele>1258.02</ele>
        <time>2019-03-02T15:22:10Z</time>
      </trkpt>
      <trkpt lat="46.04105" lon="6.43601">
        <ele>1258.02</ele>
        <time>2019-03-02T15:22:15Z</time>
      </trkpt>
      <trkpt lat="46.04107" lon="6.43598">
        <ele>1257.54</ele>
        <time>2019-03-02T15:22:28Z</time>
      </trkpt>
      <trkpt lat="46.04109" lon="6.43597">
        <ele>1257.54</ele>
        <time>2019-03-02T15:22:33Z</time>
      </trkpt>
      <trkpt lat="46.04115" lon="6.43596">
        <ele>1257.54</ele>
        <time>2019-03-02T15:23:03Z</time>
      </trkpt>
      <trkpt lat="46.04118" lon="6.43599">
        <ele>1257.06</ele>
        <time>2019-03-02T15:23:07Z</time>
      </trkpt>
      <trkpt lat="46.04117" lon="6.43601">
        <ele>1257.06</ele>
        <time>2019-03-02T15:23:08Z</time>
      </trkpt>
      <trkpt lat="46.04117" lon="6.43602">
        <ele>1257.06</ele>
        <time>2019-03-02T15:23:09Z</time>
      </trkpt>
      <trkpt lat="46.04113" lon="6.43606">
        <ele>1257.54</ele>
        <time>2019-03-02T15:23:14Z</time>
      </trkpt>
      <trkpt lat="46.04114" lon="6.4361">
        <ele>1258.02</ele>
        <time>2019-03-02T15:24:08Z</time>
      </trkpt>
      <trkpt lat="46.04114" lon="6.43614">
        <ele>1257.54</ele>
        <time>2019-03-02T15:24:09Z</time>
      </trkpt>
      <trkpt lat="46.04113" lon="6.43649">
        <ele>1254.66</ele>
        <time>2019-03-02T15:24:14Z</time>
      </trkpt>
      <trkpt lat="46.04105" lon="6.43694">
        <ele>1252.25</ele>
        <time>2019-03-02T15:24:27Z</time>
      </trkpt>
      <trkpt lat="46.04106" lon="6.43701">
        <ele>1251.77</ele>
        <time>2019-03-02T15:24:28Z</time>
      </trkpt>
      <trkpt lat="46.04108" lon="6.4371">
        <ele>1250.33</ele>
        <time>2019-03-02T15:24:29Z</time>
      </trkpt>
      <trkpt lat="46.04108" lon="6.43719">
        <ele>1247.93</ele>
        <time>2019-03-02T15:24:30Z</time>
      </trkpt>
      <trkpt lat="46.04107" lon="6.43728">
        <ele>1246.97</ele>
        <time>2019-03-02T15:24:31Z</time>
      </trkpt>
      <trkpt lat="46.04103" lon="6.43737">
        <ele>1246.01</ele>
        <time>2019-03-02T15:24:32Z</time>
      </trkpt>
      <trkpt lat="46.041" lon="6.43745">
        <ele>1244.56</ele>
        <time>2019-03-02T15:24:33Z</time>
      </trkpt>
      <trkpt lat="46.04097" lon="6.43753">
        <ele>1243.6</ele>
        <time>2019-03-02T15:24:34Z</time>
      </trkpt>
      <trkpt lat="46.04094" lon="6.4376">
        <ele>1242.64</ele>
        <time>2019-03-02T15:24:35Z</time>
      </trkpt>
      <trkpt lat="46.04094" lon="6.43767">
        <ele>1243.12</ele>
        <time>2019-03-02T15:24:36Z</time>
      </trkpt>
      <trkpt lat="46.04094" lon="6.43774">
        <ele>1243.12</ele>
        <time>2019-03-02T15:24:37Z</time>
      </trkpt>
      <trkpt lat="46.04095" lon="6.43777">
        <ele>1242.64</ele>
        <time>2019-03-02T15:24:38Z</time>
      </trkpt>
      <trkpt lat="46.04096" lon="6.43779">
        <ele>1242.16</ele>
        <time>2019-03-02T15:24:39Z</time>
      </trkpt>
      <trkpt lat="46.04096" lon="6.43781">
        <ele>1242.64</ele>
        <time>2019-03-02T15:24:40Z</time>
      </trkpt>
      <trkpt lat="46.04096" lon="6.43782">
        <ele>1243.6</ele>
        <time>2019-03-02T15:24:50Z</time>
      </trkpt>
      <trkpt lat="46.04099" lon="6.43781">
        <ele>1243.6</ele>
        <time>2019-03-02T15:25:16Z</time>
      </trkpt>
      <trkpt lat="46.04101" lon="6.43778">
        <ele>1241.2</ele>
        <time>2019-03-02T15:25:20Z</time>
      </trkpt>
      <trkpt lat="46.04106" lon="6.4379">
        <ele>1242.16</ele>
        <time>2019-03-02T15:25:50Z</time>
      </trkpt>
      <trkpt lat="46.04105" lon="6.43793">
        <ele>1242.16</ele>
        <time>2019-03-02T15:25:51Z</time>
      </trkpt>
      <trkpt lat="46.04104" lon="6.43797">
        <ele>1241.2</ele>
        <time>2019-03-02T15:25:52Z</time>
      </trkpt>
      <trkpt lat="46.04104" lon="6.43799">
        <ele>1240.24</ele>
        <time>2019-03-02T15:25:53Z</time>
      </trkpt>
      <trkpt lat="46.04107" lon="6.43796">
        <ele>1238.8</ele>
        <time>2019-03-02T15:25:55Z</time>
      </trkpt>
      <trkpt lat="46.04109" lon="6.43792">
        <ele>1238.32</ele>
        <time>2019-03-02T15:25:56Z</time>
      </trkpt>
      <trkpt lat="46.04119" lon="6.43782">
        <ele>1234.95</ele>
        <time>2019-03-02T15:25:59Z</time>
      </trkpt>
      <trkpt lat="46.04123" lon="6.43777">
        <ele>1233.51</ele>
        <time>2019-03-02T15:26:00Z</time>
      </trkpt>
      <trkpt lat="46.04133" lon="6.43766">
        <ele>1228.22</ele>
        <time>2019-03-02T15:26:02Z</time>
      </trkpt>
      <trkpt lat="46.0414" lon="6.43764">
        <ele>1225.82</ele>
        <time>2019-03-02T15:26:03Z</time>
      </trkpt>
      <trkpt lat="46.04145" lon="6.43765">
        <ele>1224.38</ele>
        <time>2019-03-02T15:26:04Z</time>
      </trkpt>
      <trkpt lat="46.04151" lon="6.43768">
        <ele>1221.49</ele>
        <time>2019-03-02T15:26:05Z</time>
      </trkpt>
      <trkpt lat="46.04157" lon="6.4377">
        <ele>1218.61</ele>
        <time>2019-03-02T15:26:06Z</time>
      </trkpt>
      <trkpt lat="46.0416" lon="6.43775">
        <ele>1214.76</ele>
        <time>2019-03-02T15:26:07Z</time>
      </trkpt>
      <trkpt lat="46.04161" lon="6.43779">
        <ele>1213.8</ele>
        <time>2019-03-02T15:26:08Z</time>
      </trkpt>
      <trkpt lat="46.0416" lon="6.4378">
        <ele>1212.84</ele>
        <time>2019-03-02T15:26:09Z</time>
      </trkpt>
      <trkpt lat="46.04162" lon="6.43787">
        <ele>1212.36</ele>
        <time>2019-03-02T15:26:43Z</time>
      </trkpt>
      <trkpt lat="46.04162" lon="6.43789">
        <ele>1212.36</ele>
        <time>2019-03-02T15:26:44Z</time>
      </trkpt>
      <trkpt lat="46.04163" lon="6.43793">
        <ele>1211.88</ele>
        <time>2019-03-02T15:26:45Z</time>
      </trkpt>
      <trkpt lat="46.04166" lon="6.43797">
        <ele>1211.4</ele>
        <time>2019-03-02T15:26:46Z</time>
      </trkpt>
      <trkpt lat="46.04169" lon="6.43802">
        <ele>1210.44</ele>
        <time>2019-03-02T15:26:47Z</time>
      </trkpt>
      <trkpt lat="46.04178" lon="6.43815">
        <ele>1207.07</ele>
        <time>2019-03-02T15:26:49Z</time>
      </trkpt>
      <trkpt lat="46.04183" lon="6.4382">
        <ele>1205.15</ele>
        <time>2019-03-02T15:26:50Z</time>
      </trkpt>
      <trkpt lat="46.0419" lon="6.43825">
        <ele>1201.79</ele>
        <time>2019-03-02T15:26:51Z</time>
      </trkpt>
      <trkpt lat="46.04197" lon="6.43833">
        <ele>1199.38</ele>
        <time>2019-03-02T15:26:52Z</time>
      </trkpt>
      <trkpt lat="46.04203" lon="6.43842">
        <ele>1197.46</ele>
        <time>2019-03-02T15:26:53Z</time>
      </trkpt>
      <trkpt lat="46.04207" lon="6.43853">
        <ele>1196.02</ele>
        <time>2019-03-02T15:26:54Z</time>
      </trkpt>
      <trkpt lat="46.0421" lon="6.43865">
        <ele>1194.58</ele>
        <time>2019-03-02T15:26:55Z</time>
      </trkpt>
      <trkpt lat="46.04213" lon="6.43877">
        <ele>1193.13</ele>
        <time>2019-03-02T15:26:56Z</time>
      </trkpt>
      <trkpt lat="46.04215" lon="6.43888">
        <ele>1192.17</ele>
        <time>2019-03-02T15:26:57Z</time>
      </trkpt>
      <trkpt lat="46.04221" lon="6.43921">
        <ele>1188.81</ele>
        <time>2019-03-02T15:27:00Z</time>
      </trkpt>
      <trkpt lat="46.04225" lon="6.43942">
        <ele>1185.44</ele>
        <time>2019-03-02T15:27:02Z</time>
      </trkpt>
      <trkpt lat="46.0423" lon="6.43963">
        <ele>1180.64</ele>
        <time>2019-03-02T15:27:04Z</time>
      </trkpt>
      <trkpt lat="46.04232" lon="6.43985">
        <ele>1177.27</ele>
        <time>2019-03-02T15:27:06Z</time>
      </trkpt>
      <trkpt lat="46.04238" lon="6.44015">
        <ele>1174.39</ele>
        <time>2019-03-02T15:27:09Z</time>
      </trkpt>
      <trkpt lat="46.04242" lon="6.44023">
        <ele>1173.91</ele>
        <time>2019-03-02T15:27:10Z</time>
      </trkpt>
      <trkpt lat="46.04247" lon="6.44031">
        <ele>1172.47</ele>
        <time>2019-03-02T15:27:11Z</time>
      </trkpt>
      <trkpt lat="46.04255" lon="6.44048">
        <ele>1169.58</ele>
        <time>2019-03-02T15:27:13Z</time>
      </trkpt>
      <trkpt lat="46.0426" lon="6.44054">
        <ele>1167.66</ele>
        <time>2019-03-02T15:27:14Z</time>
      </trkpt>
      <trkpt lat="46.04266" lon="6.44059">
        <ele>1166.7</ele>
        <time>2019-03-02T15:27:15Z</time>
      </trkpt>
      <trkpt lat="46.04271" lon="6.44065">
        <ele>1162.85</ele>
        <time>2019-03-02T15:27:16Z</time>
      </trkpt>
      <trkpt lat="46.04276" lon="6.44069">
        <ele>1160.93</ele>
        <time>2019-03-02T15:27:17Z</time>
      </trkpt>
      <trkpt lat="46.04278" lon="6.4407">
        <ele>1158.53</ele>
        <time>2019-03-02T15:27:18Z</time>
      </trkpt>
      <trkpt lat="46.04279" lon="6.44071">
        <ele>1157.56</ele>
        <time>2019-03-02T15:27:19Z</time>
      </trkpt>
      <trkpt lat="46.04281" lon="6.44073">
        <ele>1155.64</ele>
        <time>2019-03-02T15:28:06Z</time>
      </trkpt>
      <trkpt lat="46.04279" lon="6.44076">
        <ele>1155.16</ele>
        <time>2019-03-02T15:28:07Z</time>
      </trkpt>
      <trkpt lat="46.04279" lon="6.44084">
        <ele>1154.2</ele>
        <time>2019-03-02T15:29:38Z</time>
      </trkpt>
      <trkpt lat="46.04282" lon="6.44087">
        <ele>1154.2</ele>
        <time>2019-03-02T15:29:39Z</time>
      </trkpt>
      <trkpt lat="46.04291" lon="6.44098">
        <ele>1150.84</ele>
        <time>2019-03-02T15:29:41Z</time>
      </trkpt>
      <trkpt lat="46.04296" lon="6.44106">
        <ele>1149.39</ele>
        <time>2019-03-02T15:29:42Z</time>
      </trkpt>
      <trkpt lat="46.04302" lon="6.44113">
        <ele>1146.51</ele>
        <time>2019-03-02T15:29:43Z</time>
      </trkpt>
      <trkpt lat="46.04308" lon="6.44122">
        <ele>1142.18</ele>
        <time>2019-03-02T15:29:44Z</time>
      </trkpt>
      <trkpt lat="46.04314" lon="6.44131">
        <ele>1139.3</ele>
        <time>2019-03-02T15:29:45Z</time>
      </trkpt>
      <trkpt lat="46.0432" lon="6.44141">
        <ele>1136.9</ele>
        <time>2019-03-02T15:29:46Z</time>
      </trkpt>
      <trkpt lat="46.04324" lon="6.44153">
        <ele>1134.01</ele>
        <time>2019-03-02T15:29:47Z</time>
      </trkpt>
      <trkpt lat="46.0433" lon="6.44164">
        <ele>1131.13</ele>
        <time>2019-03-02T15:29:48Z</time>
      </trkpt>
      <trkpt lat="46.04338" lon="6.44174">
        <ele>1129.21</ele>
        <time>2019-03-02T15:29:49Z</time>
      </trkpt>
      <trkpt lat="46.04344" lon="6.44185">
        <ele>1123.92</ele>
        <time>2019-03-02T15:29:50Z</time>
      </trkpt>
      <trkpt lat="46.04349" lon="6.44197">
        <ele>1121.52</ele>
        <time>2019-03-02T15:29:51Z</time>
      </trkpt>
      <trkpt lat="46.04356" lon="6.44208">
        <ele>1120.07</ele>
        <time>2019-03-02T15:29:52Z</time>
      </trkpt>
      <trkpt lat="46.04362" lon="6.44219">
        <ele>1117.67</ele>
        <time>2019-03-02T15:29:53Z</time>
      </trkpt>
      <trkpt lat="46.04367" lon="6.44231">
        <ele>1114.31</ele>
        <time>2019-03-02T15:29:54Z</time>
      </trkpt>
      <trkpt lat="46.04377" lon="6.44255">
        <ele>1109.02</ele>
        <time>2019-03-02T15:29:56Z</time>
      </trkpt>
      <trkpt lat="46.04385" lon="6.4428">
        <ele>1102.77</ele>
        <time>2019-03-02T15:29:58Z</time>
      </trkpt>
      <trkpt lat="46.04388" lon="6.44293">
        <ele>1099.89</ele>
        <time>2019-03-02T15:29:59Z</time>
      </trkpt>
      <trkpt lat="46.04398" lon="6.44317">
        <ele>1093.64</ele>
        <time>2019-03-02T15:30:01Z</time>
      </trkpt>
      <trkpt lat="46.04406" lon="6.44327">
        <ele>1090.75</ele>
        <time>2019-03-02T15:30:02Z</time>
      </trkpt>
      <trkpt lat="46.04413" lon="6.44338">
        <ele>1086.43</ele>
        <time>2019-03-02T15:30:03Z</time>
      </trkpt>
      <trkpt lat="46.04421" lon="6.44349">
        <ele>1082.58</ele>
        <time>2019-03-02T15:30:04Z</time>
      </trkpt>
      <trkpt lat="46.04428" lon="6.4436">
        <ele>1078.26</ele>
        <time>2019-03-02T15:30:05Z</time>
      </trkpt>
      <trkpt lat="46.04437" lon="6.44372">
        <ele>1073.93</ele>
        <time>2019-03-02T15:30:06Z</time>
      </trkpt>
      <trkpt lat="46.04446" lon="6.44385">
        <ele>1069.6</ele>
        <time>2019-03-02T15:30:07Z</time>
      </trkpt>
      <trkpt lat="46.04456" lon="6.44397">
        <ele>1065.76</ele>
        <time>2019-03-02T15:30:08Z</time>
      </trkpt>
      <trkpt lat="46.04465" lon="6.4441">
        <ele>1060.47</ele>
        <time>2019-03-02T15:30:09Z</time>
      </trkpt>
      <trkpt lat="46.04472" lon="6.44424">
        <ele>1057.11</ele>
        <time>2019-03-02T15:30:10Z</time>
      </trkpt>
      <trkpt lat="46.04475" lon="6.44438">
        <ele>1054.7</ele>
        <time>2019-03-02T15:30:11Z</time>
      </trkpt>
      <trkpt lat="46.04474" lon="6.4445">
        <ele>1051.82</ele>
        <time>2019-03-02T15:30:12Z</time>
      </trkpt>
      <trkpt lat="46.04471" lon="6.44458">
        <ele>1049.42</ele>
        <time>2019-03-02T15:30:13Z</time>
      </trkpt>
      <trkpt lat="46.04471" lon="6.44461">
        <ele>1048.45</ele>
        <time>2019-03-02T15:30:14Z</time>
      </trkpt>
      <trkpt lat="46.04472" lon="6.4446">
        <ele>1047.01</ele>
        <time>2019-03-02T15:30:15Z</time>
      </trkpt>
      <trkpt lat="46.04473" lon="6.44459">
        <ele>1044.61</ele>
        <time>2019-03-02T15:30:42Z</time>
      </trkpt>
      <trkpt lat="46.04475" lon="6.4446">
        <ele>1044.61</ele>
        <time>2019-03-02T15:30:43Z</time>
      </trkpt>
      <trkpt lat="46.0448" lon="6.44464">
        <ele>1043.17</ele>
        <time>2019-03-02T15:30:45Z</time>
      </trkpt>
      <trkpt lat="46.0448" lon="6.44467">
        <ele>1042.69</ele>
        <time>2019-03-02T15:30:46Z</time>
      </trkpt>
      <trkpt lat="46.04479" lon="6.44468">
        <ele>1042.21</ele>
        <time>2019-03-02T15:30:47Z</time>
      </trkpt>
      <trkpt lat="46.04478" lon="6.44469">
        <ele>1041.73</ele>
        <time>2019-03-02T15:30:48Z</time>
      </trkpt>
      <trkpt lat="46.04476" lon="6.44468">
        <ele>1040.28</ele>
        <time>2019-03-02T15:31:08Z</time>
      </trkpt>
    </trkseg>
  </trk>
</gpx>